<?xml version="1.0" encoding="UTF-8" standalone="no" ?>
<gpx xmlns="http://www.topografix.com/GPX/1/1" xmlns:xsi="http://www.w3.org/2001/XMLSchema-instance" xsi:schemaLocation="http://www.topografix.com/GPX/1/1 http://www.topografix.com/GPX/1/1/gpx.xsd" version="1.1" creator="VisuGPX - https://www.visugpx.com">
  <metadata>
    <name>La p\'tite vadrouille 17km</name>
    <desc><![CDATA[La p\'tite vadrouille 17km]]></desc>
  </metadata>
  <trk>
    <name><![CDATA[Trail d'agnetz]]></name>
    <trkseg>
      <trkpt lat="49.38122" lon="2.38562">
        <ele>87.14</ele>
        <time>2010-10-10T07:14:51Z</time>
      </trkpt>
      <trkpt lat="49.3811" lon="2.38559">
        <ele>88.58</ele>
        <time>2010-10-10T07:14:56Z</time>
      </trkpt>
      <trkpt lat="49.38078" lon="2.38557">
        <ele>89.06</ele>
        <time>2010-10-10T07:15:09Z</time>
      </trkpt>
      <trkpt lat="49.3805" lon="2.38556">
        <ele>89.06</ele>
        <time>2010-10-10T07:15:20Z</time>
      </trkpt>
      <trkpt lat="49.38024" lon="2.38544">
        <ele>89.54</ele>
        <time>2010-10-10T07:15:32Z</time>
      </trkpt>
      <trkpt lat="49.37995" lon="2.38531">
        <ele>90.98</ele>
        <time>2010-10-10T07:15:45Z</time>
      </trkpt>
      <trkpt lat="49.37972" lon="2.38523">
        <ele>90.98</ele>
        <time>2010-10-10T07:15:55Z</time>
      </trkpt>
      <trkpt lat="49.37941" lon="2.38514">
        <ele>90.98</ele>
        <time>2010-10-10T07:16:07Z</time>
      </trkpt>
      <trkpt lat="49.37913" lon="2.38506">
        <ele>91.94</ele>
        <time>2010-10-10T07:16:19Z</time>
      </trkpt>
      <trkpt lat="49.37902" lon="2.38501">
        <ele>92.42</ele>
        <time>2010-10-10T07:16:25Z</time>
      </trkpt>
      <trkpt lat="49.37894" lon="2.38496">
        <ele>92.9</ele>
        <time>2010-10-10T07:16:29Z</time>
      </trkpt>
      <trkpt lat="49.37866" lon="2.38478">
        <ele>94.35</ele>
        <time>2010-10-10T07:16:42Z</time>
      </trkpt>
      <trkpt lat="49.37834" lon="2.38456">
        <ele>96.27</ele>
        <time>2010-10-10T07:16:57Z</time>
      </trkpt>
      <trkpt lat="49.37814" lon="2.38439">
        <ele>99.15</ele>
        <time>2010-10-10T07:17:09Z</time>
      </trkpt>
      <trkpt lat="49.37805" lon="2.38427">
        <ele>100.11</ele>
        <time>2010-10-10T07:17:16Z</time>
      </trkpt>
      <trkpt lat="49.37799" lon="2.38418">
        <ele>101.08</ele>
        <time>2010-10-10T07:17:20Z</time>
      </trkpt>
      <trkpt lat="49.37779" lon="2.38392">
        <ele>104.44</ele>
        <time>2010-10-10T07:17:33Z</time>
      </trkpt>
      <trkpt lat="49.37771" lon="2.38383">
        <ele>105.4</ele>
        <time>2010-10-10T07:17:39Z</time>
      </trkpt>
      <trkpt lat="49.37746" lon="2.3836">
        <ele>109.25</ele>
        <time>2010-10-10T07:17:53Z</time>
      </trkpt>
      <trkpt lat="49.37728" lon="2.38344">
        <ele>111.17</ele>
        <time>2010-10-10T07:18:04Z</time>
      </trkpt>
      <trkpt lat="49.37713" lon="2.38337">
        <ele>114.53</ele>
        <time>2010-10-10T07:18:15Z</time>
      </trkpt>
      <trkpt lat="49.37698" lon="2.38329">
        <ele>117.9</ele>
        <time>2010-10-10T07:18:24Z</time>
      </trkpt>
      <trkpt lat="49.37683" lon="2.38317">
        <ele>121.26</ele>
        <time>2010-10-10T07:18:33Z</time>
      </trkpt>
      <trkpt lat="49.37681" lon="2.38313">
        <ele>122.22</ele>
        <time>2010-10-10T07:18:36Z</time>
      </trkpt>
      <trkpt lat="49.37678" lon="2.38308">
        <ele>123.67</ele>
        <time>2010-10-10T07:18:40Z</time>
      </trkpt>
      <trkpt lat="49.37671" lon="2.383">
        <ele>126.55</ele>
        <time>2010-10-10T07:18:47Z</time>
      </trkpt>
      <trkpt lat="49.3767" lon="2.38299">
        <ele>127.03</ele>
        <time>2010-10-10T07:18:48Z</time>
      </trkpt>
      <trkpt lat="49.3766" lon="2.38284">
        <ele>129.43</ele>
        <time>2010-10-10T07:18:57Z</time>
      </trkpt>
      <trkpt lat="49.37647" lon="2.38269">
        <ele>132.8</ele>
        <time>2010-10-10T07:19:07Z</time>
      </trkpt>
      <trkpt lat="49.37635" lon="2.38265">
        <ele>135.68</ele>
        <time>2010-10-10T07:19:17Z</time>
      </trkpt>
      <trkpt lat="49.37634" lon="2.38265">
        <ele>136.16</ele>
        <time>2010-10-10T07:19:18Z</time>
      </trkpt>
      <trkpt lat="49.37623" lon="2.38259">
        <ele>139.05</ele>
        <time>2010-10-10T07:19:30Z</time>
      </trkpt>
      <trkpt lat="49.37619" lon="2.38256">
        <ele>139.53</ele>
        <time>2010-10-10T07:19:33Z</time>
      </trkpt>
      <trkpt lat="49.37602" lon="2.38255">
        <ele>142.89</ele>
        <time>2010-10-10T07:19:43Z</time>
      </trkpt>
      <trkpt lat="49.37583" lon="2.38253">
        <ele>146.26</ele>
        <time>2010-10-10T07:19:56Z</time>
      </trkpt>
      <trkpt lat="49.3758" lon="2.38251">
        <ele>146.74</ele>
        <time>2010-10-10T07:19:57Z</time>
      </trkpt>
      <trkpt lat="49.37554" lon="2.38245">
        <ele>150.1</ele>
        <time>2010-10-10T07:20:11Z</time>
      </trkpt>
      <trkpt lat="49.37531" lon="2.38243">
        <ele>152.51</ele>
        <time>2010-10-10T07:20:24Z</time>
      </trkpt>
      <trkpt lat="49.37528" lon="2.38245">
        <ele>152.51</ele>
        <time>2010-10-10T07:20:26Z</time>
      </trkpt>
      <trkpt lat="49.37517" lon="2.3825">
        <ele>152.51</ele>
        <time>2010-10-10T07:20:34Z</time>
      </trkpt>
      <trkpt lat="49.37501" lon="2.3825">
        <ele>152.99</ele>
        <time>2010-10-10T07:20:44Z</time>
      </trkpt>
      <trkpt lat="49.37481" lon="2.38248">
        <ele>153.95</ele>
        <time>2010-10-10T07:20:57Z</time>
      </trkpt>
      <trkpt lat="49.37464" lon="2.38247">
        <ele>154.91</ele>
        <time>2010-10-10T07:21:10Z</time>
      </trkpt>
      <trkpt lat="49.37459" lon="2.38244">
        <ele>154.91</ele>
        <time>2010-10-10T07:21:14Z</time>
      </trkpt>
      <trkpt lat="49.37456" lon="2.38233">
        <ele>155.39</ele>
        <time>2010-10-10T07:21:20Z</time>
      </trkpt>
      <trkpt lat="49.37457" lon="2.38194">
        <ele>154.91</ele>
        <time>2010-10-10T07:21:33Z</time>
      </trkpt>
      <trkpt lat="49.37458" lon="2.38156">
        <ele>155.39</ele>
        <time>2010-10-10T07:21:45Z</time>
      </trkpt>
      <trkpt lat="49.3746" lon="2.38114">
        <ele>155.39</ele>
        <time>2010-10-10T07:21:58Z</time>
      </trkpt>
      <trkpt lat="49.37462" lon="2.38066">
        <ele>155.39</ele>
        <time>2010-10-10T07:22:12Z</time>
      </trkpt>
      <trkpt lat="49.37465" lon="2.38021">
        <ele>155.87</ele>
        <time>2010-10-10T07:22:26Z</time>
      </trkpt>
      <trkpt lat="49.37469" lon="2.3798">
        <ele>155.87</ele>
        <time>2010-10-10T07:22:38Z</time>
      </trkpt>
      <trkpt lat="49.37483" lon="2.37927">
        <ele>154.91</ele>
        <time>2010-10-10T07:22:53Z</time>
      </trkpt>
      <trkpt lat="49.37504" lon="2.37888">
        <ele>154.43</ele>
        <time>2010-10-10T07:23:07Z</time>
      </trkpt>
      <trkpt lat="49.37526" lon="2.37855">
        <ele>154.43</ele>
        <time>2010-10-10T07:23:20Z</time>
      </trkpt>
      <trkpt lat="49.37551" lon="2.37824">
        <ele>154.43</ele>
        <time>2010-10-10T07:23:33Z</time>
      </trkpt>
      <trkpt lat="49.37575" lon="2.37794">
        <ele>154.43</ele>
        <time>2010-10-10T07:23:46Z</time>
      </trkpt>
      <trkpt lat="49.37601" lon="2.3776">
        <ele>154.91</ele>
        <time>2010-10-10T07:24:00Z</time>
      </trkpt>
      <trkpt lat="49.37625" lon="2.37724">
        <ele>155.39</ele>
        <time>2010-10-10T07:24:14Z</time>
      </trkpt>
      <trkpt lat="49.37646" lon="2.37688">
        <ele>155.87</ele>
        <time>2010-10-10T07:24:27Z</time>
      </trkpt>
      <trkpt lat="49.37664" lon="2.37651">
        <ele>156.35</ele>
        <time>2010-10-10T07:24:40Z</time>
      </trkpt>
      <trkpt lat="49.37672" lon="2.3764">
        <ele>156.35</ele>
        <time>2010-10-10T07:24:45Z</time>
      </trkpt>
      <trkpt lat="49.37678" lon="2.37631">
        <ele>155.39</ele>
        <time>2010-10-10T07:24:49Z</time>
      </trkpt>
      <trkpt lat="49.37702" lon="2.37585">
        <ele>155.39</ele>
        <time>2010-10-10T07:25:05Z</time>
      </trkpt>
      <trkpt lat="49.37708" lon="2.37562">
        <ele>155.87</ele>
        <time>2010-10-10T07:25:12Z</time>
      </trkpt>
      <trkpt lat="49.37714" lon="2.3754">
        <ele>156.35</ele>
        <time>2010-10-10T07:25:20Z</time>
      </trkpt>
      <trkpt lat="49.37726" lon="2.3749">
        <ele>157.31</ele>
        <time>2010-10-10T07:25:33Z</time>
      </trkpt>
      <trkpt lat="49.37737" lon="2.37435">
        <ele>157.31</ele>
        <time>2010-10-10T07:25:47Z</time>
      </trkpt>
      <trkpt lat="49.37744" lon="2.37391">
        <ele>158.27</ele>
        <time>2010-10-10T07:25:57Z</time>
      </trkpt>
      <trkpt lat="49.37737" lon="2.37358">
        <ele>157.79</ele>
        <time>2010-10-10T07:26:06Z</time>
      </trkpt>
      <trkpt lat="49.37747" lon="2.37322">
        <ele>158.27</ele>
        <time>2010-10-10T07:26:18Z</time>
      </trkpt>
      <trkpt lat="49.37748" lon="2.37312">
        <ele>158.27</ele>
        <time>2010-10-10T07:26:22Z</time>
      </trkpt>
      <trkpt lat="49.37754" lon="2.37263">
        <ele>157.79</ele>
        <time>2010-10-10T07:26:35Z</time>
      </trkpt>
      <trkpt lat="49.37741" lon="2.37195">
        <ele>157.31</ele>
        <time>2010-10-10T07:26:50Z</time>
      </trkpt>
      <trkpt lat="49.37719" lon="2.3715">
        <ele>156.35</ele>
        <time>2010-10-10T07:27:02Z</time>
      </trkpt>
      <trkpt lat="49.37693" lon="2.37104">
        <ele>156.83</ele>
        <time>2010-10-10T07:27:15Z</time>
      </trkpt>
      <trkpt lat="49.37665" lon="2.37097">
        <ele>156.83</ele>
        <time>2010-10-10T07:27:25Z</time>
      </trkpt>
      <trkpt lat="49.37629" lon="2.37094">
        <ele>156.83</ele>
        <time>2010-10-10T07:27:37Z</time>
      </trkpt>
      <trkpt lat="49.37597" lon="2.37087">
        <ele>157.31</ele>
        <time>2010-10-10T07:27:48Z</time>
      </trkpt>
      <trkpt lat="49.37573" lon="2.37083">
        <ele>157.31</ele>
        <time>2010-10-10T07:27:58Z</time>
      </trkpt>
      <trkpt lat="49.37567" lon="2.37087">
        <ele>157.31</ele>
        <time>2010-10-10T07:28:01Z</time>
      </trkpt>
      <trkpt lat="49.37563" lon="2.37116">
        <ele>158.27</ele>
        <time>2010-10-10T07:28:13Z</time>
      </trkpt>
      <trkpt lat="49.37559" lon="2.37167">
        <ele>158.75</ele>
        <time>2010-10-10T07:28:26Z</time>
      </trkpt>
      <trkpt lat="49.37556" lon="2.37206">
        <ele>159.24</ele>
        <time>2010-10-10T07:28:36Z</time>
      </trkpt>
      <trkpt lat="49.37555" lon="2.3725">
        <ele>159.24</ele>
        <time>2010-10-10T07:28:45Z</time>
      </trkpt>
      <trkpt lat="49.37554" lon="2.37295">
        <ele>159.24</ele>
        <time>2010-10-10T07:28:57Z</time>
      </trkpt>
      <trkpt lat="49.37547" lon="2.3734">
        <ele>159.72</ele>
        <time>2010-10-10T07:29:08Z</time>
      </trkpt>
      <trkpt lat="49.37545" lon="2.37391">
        <ele>158.75</ele>
        <time>2010-10-10T07:29:20Z</time>
      </trkpt>
      <trkpt lat="49.37547" lon="2.37427">
        <ele>158.75</ele>
        <time>2010-10-10T07:29:29Z</time>
      </trkpt>
      <trkpt lat="49.3754" lon="2.37441">
        <ele>158.75</ele>
        <time>2010-10-10T07:29:34Z</time>
      </trkpt>
      <trkpt lat="49.37504" lon="2.37442">
        <ele>159.24</ele>
        <time>2010-10-10T07:29:48Z</time>
      </trkpt>
      <trkpt lat="49.37497" lon="2.37439">
        <ele>158.75</ele>
        <time>2010-10-10T07:29:51Z</time>
      </trkpt>
      <trkpt lat="49.37479" lon="2.37435">
        <ele>159.24</ele>
        <time>2010-10-10T07:29:58Z</time>
      </trkpt>
      <trkpt lat="49.37475" lon="2.37434">
        <ele>159.24</ele>
        <time>2010-10-10T07:30:00Z</time>
      </trkpt>
      <trkpt lat="49.37463" lon="2.37432">
        <ele>159.24</ele>
        <time>2010-10-10T07:30:04Z</time>
      </trkpt>
      <trkpt lat="49.37448" lon="2.37427">
        <ele>158.75</ele>
        <time>2010-10-10T07:30:09Z</time>
      </trkpt>
      <trkpt lat="49.37425" lon="2.37421">
        <ele>159.72</ele>
        <time>2010-10-10T07:30:18Z</time>
      </trkpt>
      <trkpt lat="49.37403" lon="2.3743">
        <ele>158.75</ele>
        <time>2010-10-10T07:30:29Z</time>
      </trkpt>
      <trkpt lat="49.37402" lon="2.37431">
        <ele>158.75</ele>
        <time>2010-10-10T07:30:30Z</time>
      </trkpt>
      <trkpt lat="49.37392" lon="2.37486">
        <ele>158.75</ele>
        <time>2010-10-10T07:30:45Z</time>
      </trkpt>
      <trkpt lat="49.3739" lon="2.3751">
        <ele>158.27</ele>
        <time>2010-10-10T07:30:51Z</time>
      </trkpt>
      <trkpt lat="49.37382" lon="2.37556">
        <ele>158.27</ele>
        <time>2010-10-10T07:31:02Z</time>
      </trkpt>
      <trkpt lat="49.37375" lon="2.3757">
        <ele>158.27</ele>
        <time>2010-10-10T07:31:07Z</time>
      </trkpt>
      <trkpt lat="49.37361" lon="2.37611">
        <ele>158.27</ele>
        <time>2010-10-10T07:31:22Z</time>
      </trkpt>
      <trkpt lat="49.37357" lon="2.37633">
        <ele>157.79</ele>
        <time>2010-10-10T07:31:28Z</time>
      </trkpt>
      <trkpt lat="49.37347" lon="2.37656">
        <ele>157.79</ele>
        <time>2010-10-10T07:31:34Z</time>
      </trkpt>
      <trkpt lat="49.37319" lon="2.37649">
        <ele>157.79</ele>
        <time>2010-10-10T07:31:47Z</time>
      </trkpt>
      <trkpt lat="49.37288" lon="2.37642">
        <ele>153.47</ele>
        <time>2010-10-10T07:31:57Z</time>
      </trkpt>
      <trkpt lat="49.37286" lon="2.37641">
        <ele>154.43</ele>
        <time>2010-10-10T07:31:58Z</time>
      </trkpt>
      <trkpt lat="49.37252" lon="2.37627">
        <ele>154.43</ele>
        <time>2010-10-10T07:32:10Z</time>
      </trkpt>
      <trkpt lat="49.37225" lon="2.37617">
        <ele>153.95</ele>
        <time>2010-10-10T07:32:20Z</time>
      </trkpt>
      <trkpt lat="49.37194" lon="2.37608">
        <ele>152.03</ele>
        <time>2010-10-10T07:32:32Z</time>
      </trkpt>
      <trkpt lat="49.3719" lon="2.37605">
        <ele>153.47</ele>
        <time>2010-10-10T07:32:34Z</time>
      </trkpt>
      <trkpt lat="49.37177" lon="2.37599">
        <ele>153.47</ele>
        <time>2010-10-10T07:32:39Z</time>
      </trkpt>
      <trkpt lat="49.37165" lon="2.37593">
        <ele>153.47</ele>
        <time>2010-10-10T07:32:43Z</time>
      </trkpt>
      <trkpt lat="49.37136" lon="2.37587">
        <ele>154.91</ele>
        <time>2010-10-10T07:32:53Z</time>
      </trkpt>
      <trkpt lat="49.37129" lon="2.37585">
        <ele>154.91</ele>
        <time>2010-10-10T07:32:56Z</time>
      </trkpt>
      <trkpt lat="49.37107" lon="2.37574">
        <ele>154.43</ele>
        <time>2010-10-10T07:33:04Z</time>
      </trkpt>
      <trkpt lat="49.37101" lon="2.37571">
        <ele>153.95</ele>
        <time>2010-10-10T07:33:06Z</time>
      </trkpt>
      <trkpt lat="49.3709" lon="2.37569">
        <ele>154.43</ele>
        <time>2010-10-10T07:33:19Z</time>
      </trkpt>
      <trkpt lat="49.3709" lon="2.37561">
        <ele>153.95</ele>
        <time>2010-10-10T07:34:00Z</time>
      </trkpt>
      <trkpt lat="49.37089" lon="2.37522">
        <ele>154.43</ele>
        <time>2010-10-10T07:34:13Z</time>
      </trkpt>
      <trkpt lat="49.37091" lon="2.37507">
        <ele>154.43</ele>
        <time>2010-10-10T07:34:17Z</time>
      </trkpt>
      <trkpt lat="49.37103" lon="2.37462">
        <ele>154.43</ele>
        <time>2010-10-10T07:34:29Z</time>
      </trkpt>
      <trkpt lat="49.3711" lon="2.37409">
        <ele>154.91</ele>
        <time>2010-10-10T07:34:44Z</time>
      </trkpt>
      <trkpt lat="49.37115" lon="2.37386">
        <ele>154.91</ele>
        <time>2010-10-10T07:34:51Z</time>
      </trkpt>
      <trkpt lat="49.37118" lon="2.37372">
        <ele>154.91</ele>
        <time>2010-10-10T07:34:55Z</time>
      </trkpt>
      <trkpt lat="49.3712" lon="2.37352">
        <ele>153.95</ele>
        <time>2010-10-10T07:34:59Z</time>
      </trkpt>
      <trkpt lat="49.37124" lon="2.3731">
        <ele>154.91</ele>
        <time>2010-10-10T07:35:08Z</time>
      </trkpt>
      <trkpt lat="49.37134" lon="2.37247">
        <ele>153.95</ele>
        <time>2010-10-10T07:35:23Z</time>
      </trkpt>
      <trkpt lat="49.37136" lon="2.3724">
        <ele>154.43</ele>
        <time>2010-10-10T07:35:25Z</time>
      </trkpt>
      <trkpt lat="49.37138" lon="2.37217">
        <ele>153.95</ele>
        <time>2010-10-10T07:35:31Z</time>
      </trkpt>
      <trkpt lat="49.37139" lon="2.3719">
        <ele>153.95</ele>
        <time>2010-10-10T07:35:40Z</time>
      </trkpt>
      <trkpt lat="49.37142" lon="2.3717">
        <ele>154.43</ele>
        <time>2010-10-10T07:35:46Z</time>
      </trkpt>
      <trkpt lat="49.37148" lon="2.37145">
        <ele>154.91</ele>
        <time>2010-10-10T07:35:53Z</time>
      </trkpt>
      <trkpt lat="49.37154" lon="2.37122">
        <ele>154.43</ele>
        <time>2010-10-10T07:35:57Z</time>
      </trkpt>
      <trkpt lat="49.37159" lon="2.37102">
        <ele>154.91</ele>
        <time>2010-10-10T07:36:01Z</time>
      </trkpt>
      <trkpt lat="49.37163" lon="2.37091">
        <ele>155.39</ele>
        <time>2010-10-10T07:36:04Z</time>
      </trkpt>
      <trkpt lat="49.3717" lon="2.37058">
        <ele>155.39</ele>
        <time>2010-10-10T07:36:12Z</time>
      </trkpt>
      <trkpt lat="49.37173" lon="2.37045">
        <ele>155.39</ele>
        <time>2010-10-10T07:36:16Z</time>
      </trkpt>
      <trkpt lat="49.37179" lon="2.37034">
        <ele>155.39</ele>
        <time>2010-10-10T07:36:20Z</time>
      </trkpt>
      <trkpt lat="49.37192" lon="2.37023">
        <ele>155.87</ele>
        <time>2010-10-10T07:36:26Z</time>
      </trkpt>
      <trkpt lat="49.37205" lon="2.3701">
        <ele>155.87</ele>
        <time>2010-10-10T07:36:34Z</time>
      </trkpt>
      <trkpt lat="49.37208" lon="2.36966">
        <ele>155.39</ele>
        <time>2010-10-10T07:36:46Z</time>
      </trkpt>
      <trkpt lat="49.37206" lon="2.36956">
        <ele>156.35</ele>
        <time>2010-10-10T07:36:48Z</time>
      </trkpt>
      <trkpt lat="49.37208" lon="2.36906">
        <ele>155.87</ele>
        <time>2010-10-10T07:36:59Z</time>
      </trkpt>
      <trkpt lat="49.37206" lon="2.36881">
        <ele>155.39</ele>
        <time>2010-10-10T07:37:05Z</time>
      </trkpt>
      <trkpt lat="49.37209" lon="2.36848">
        <ele>155.39</ele>
        <time>2010-10-10T07:37:12Z</time>
      </trkpt>
      <trkpt lat="49.37221" lon="2.36804">
        <ele>155.39</ele>
        <time>2010-10-10T07:37:24Z</time>
      </trkpt>
      <trkpt lat="49.37221" lon="2.36799">
        <ele>155.39</ele>
        <time>2010-10-10T07:37:25Z</time>
      </trkpt>
      <trkpt lat="49.37225" lon="2.36757">
        <ele>155.87</ele>
        <time>2010-10-10T07:37:34Z</time>
      </trkpt>
      <trkpt lat="49.37226" lon="2.3674">
        <ele>155.87</ele>
        <time>2010-10-10T07:37:39Z</time>
      </trkpt>
      <trkpt lat="49.37237" lon="2.36681">
        <ele>155.39</ele>
        <time>2010-10-10T07:37:51Z</time>
      </trkpt>
      <trkpt lat="49.37244" lon="2.3665">
        <ele>154.91</ele>
        <time>2010-10-10T07:38:01Z</time>
      </trkpt>
      <trkpt lat="49.37246" lon="2.3664">
        <ele>154.91</ele>
        <time>2010-10-10T07:38:04Z</time>
      </trkpt>
      <trkpt lat="49.37256" lon="2.36598">
        <ele>154.91</ele>
        <time>2010-10-10T07:38:15Z</time>
      </trkpt>
      <trkpt lat="49.37261" lon="2.36577">
        <ele>154.91</ele>
        <time>2010-10-10T07:38:19Z</time>
      </trkpt>
      <trkpt lat="49.37268" lon="2.36535">
        <ele>154.43</ele>
        <time>2010-10-10T07:38:31Z</time>
      </trkpt>
      <trkpt lat="49.37273" lon="2.36489">
        <ele>154.43</ele>
        <time>2010-10-10T07:38:41Z</time>
      </trkpt>
      <trkpt lat="49.37273" lon="2.36485">
        <ele>153.95</ele>
        <time>2010-10-10T07:38:42Z</time>
      </trkpt>
      <trkpt lat="49.37281" lon="2.36412">
        <ele>154.43</ele>
        <time>2010-10-10T07:38:53Z</time>
      </trkpt>
      <trkpt lat="49.37281" lon="2.36403">
        <ele>153.95</ele>
        <time>2010-10-10T07:38:55Z</time>
      </trkpt>
      <trkpt lat="49.37289" lon="2.3636">
        <ele>153.95</ele>
        <time>2010-10-10T07:39:08Z</time>
      </trkpt>
      <trkpt lat="49.37295" lon="2.36336">
        <ele>153.95</ele>
        <time>2010-10-10T07:39:14Z</time>
      </trkpt>
      <trkpt lat="49.37303" lon="2.363">
        <ele>153.95</ele>
        <time>2010-10-10T07:39:24Z</time>
      </trkpt>
      <trkpt lat="49.37307" lon="2.36253">
        <ele>153.47</ele>
        <time>2010-10-10T07:39:34Z</time>
      </trkpt>
      <trkpt lat="49.37313" lon="2.3622">
        <ele>153.47</ele>
        <time>2010-10-10T07:39:41Z</time>
      </trkpt>
      <trkpt lat="49.3732" lon="2.36194">
        <ele>152.99</ele>
        <time>2010-10-10T07:39:46Z</time>
      </trkpt>
      <trkpt lat="49.37322" lon="2.36182">
        <ele>153.47</ele>
        <time>2010-10-10T07:39:49Z</time>
      </trkpt>
      <trkpt lat="49.37326" lon="2.36168">
        <ele>152.99</ele>
        <time>2010-10-10T07:39:54Z</time>
      </trkpt>
      <trkpt lat="49.37326" lon="2.36157">
        <ele>152.99</ele>
        <time>2010-10-10T07:39:56Z</time>
      </trkpt>
      <trkpt lat="49.37327" lon="2.36141">
        <ele>152.99</ele>
        <time>2010-10-10T07:40:02Z</time>
      </trkpt>
      <trkpt lat="49.37326" lon="2.36119">
        <ele>152.51</ele>
        <time>2010-10-10T07:40:11Z</time>
      </trkpt>
      <trkpt lat="49.37336" lon="2.36068">
        <ele>152.03</ele>
        <time>2010-10-10T07:40:25Z</time>
      </trkpt>
      <trkpt lat="49.37356" lon="2.36004">
        <ele>151.54</ele>
        <time>2010-10-10T07:40:39Z</time>
      </trkpt>
      <trkpt lat="49.3736" lon="2.35992">
        <ele>151.06</ele>
        <time>2010-10-10T07:40:41Z</time>
      </trkpt>
      <trkpt lat="49.37375" lon="2.35927">
        <ele>151.54</ele>
        <time>2010-10-10T07:40:53Z</time>
      </trkpt>
      <trkpt lat="49.37375" lon="2.35913">
        <ele>151.54</ele>
        <time>2010-10-10T07:40:56Z</time>
      </trkpt>
      <trkpt lat="49.37376" lon="2.3589">
        <ele>151.54</ele>
        <time>2010-10-10T07:41:00Z</time>
      </trkpt>
      <trkpt lat="49.37377" lon="2.3588">
        <ele>151.54</ele>
        <time>2010-10-10T07:41:02Z</time>
      </trkpt>
      <trkpt lat="49.37378" lon="2.35865">
        <ele>151.54</ele>
        <time>2010-10-10T07:41:05Z</time>
      </trkpt>
      <trkpt lat="49.37381" lon="2.35843">
        <ele>151.54</ele>
        <time>2010-10-10T07:41:10Z</time>
      </trkpt>
      <trkpt lat="49.37391" lon="2.35782">
        <ele>151.06</ele>
        <time>2010-10-10T07:41:23Z</time>
      </trkpt>
      <trkpt lat="49.37394" lon="2.35756">
        <ele>151.06</ele>
        <time>2010-10-10T07:41:29Z</time>
      </trkpt>
      <trkpt lat="49.374" lon="2.35694">
        <ele>151.54</ele>
        <time>2010-10-10T07:41:39Z</time>
      </trkpt>
      <trkpt lat="49.37406" lon="2.35645">
        <ele>151.06</ele>
        <time>2010-10-10T07:41:49Z</time>
      </trkpt>
      <trkpt lat="49.37406" lon="2.35638">
        <ele>151.54</ele>
        <time>2010-10-10T07:41:51Z</time>
      </trkpt>
      <trkpt lat="49.37407" lon="2.35633">
        <ele>151.06</ele>
        <time>2010-10-10T07:41:53Z</time>
      </trkpt>
      <trkpt lat="49.37416" lon="2.35594">
        <ele>151.54</ele>
        <time>2010-10-10T07:42:02Z</time>
      </trkpt>
      <trkpt lat="49.37417" lon="2.35592">
        <ele>151.06</ele>
        <time>2010-10-10T07:42:03Z</time>
      </trkpt>
      <trkpt lat="49.37419" lon="2.35587">
        <ele>151.54</ele>
        <time>2010-10-10T07:42:05Z</time>
      </trkpt>
      <trkpt lat="49.37421" lon="2.35573">
        <ele>151.06</ele>
        <time>2010-10-10T07:42:08Z</time>
      </trkpt>
      <trkpt lat="49.37431" lon="2.35543">
        <ele>151.54</ele>
        <time>2010-10-10T07:42:14Z</time>
      </trkpt>
      <trkpt lat="49.37434" lon="2.35527">
        <ele>151.54</ele>
        <time>2010-10-10T07:42:18Z</time>
      </trkpt>
      <trkpt lat="49.37436" lon="2.35511">
        <ele>151.54</ele>
        <time>2010-10-10T07:42:21Z</time>
      </trkpt>
      <trkpt lat="49.37439" lon="2.35468">
        <ele>150.58</ele>
        <time>2010-10-10T07:42:29Z</time>
      </trkpt>
      <trkpt lat="49.37442" lon="2.35429">
        <ele>150.58</ele>
        <time>2010-10-10T07:42:37Z</time>
      </trkpt>
      <trkpt lat="49.37445" lon="2.35411">
        <ele>151.06</ele>
        <time>2010-10-10T07:42:41Z</time>
      </trkpt>
      <trkpt lat="49.37453" lon="2.35361">
        <ele>150.58</ele>
        <time>2010-10-10T07:42:52Z</time>
      </trkpt>
      <trkpt lat="49.37461" lon="2.35323">
        <ele>149.62</ele>
        <time>2010-10-10T07:43:01Z</time>
      </trkpt>
      <trkpt lat="49.37465" lon="2.353">
        <ele>149.62</ele>
        <time>2010-10-10T07:43:10Z</time>
      </trkpt>
      <trkpt lat="49.37465" lon="2.35298">
        <ele>149.14</ele>
        <time>2010-10-10T07:43:11Z</time>
      </trkpt>
      <trkpt lat="49.37469" lon="2.35255">
        <ele>148.66</ele>
        <time>2010-10-10T07:43:20Z</time>
      </trkpt>
      <trkpt lat="49.37471" lon="2.35248">
        <ele>149.14</ele>
        <time>2010-10-10T07:43:22Z</time>
      </trkpt>
      <trkpt lat="49.37474" lon="2.35236">
        <ele>149.14</ele>
        <time>2010-10-10T07:43:25Z</time>
      </trkpt>
      <trkpt lat="49.3748" lon="2.35194">
        <ele>149.14</ele>
        <time>2010-10-10T07:43:35Z</time>
      </trkpt>
      <trkpt lat="49.37485" lon="2.35169">
        <ele>149.14</ele>
        <time>2010-10-10T07:43:43Z</time>
      </trkpt>
      <trkpt lat="49.37488" lon="2.35165">
        <ele>148.66</ele>
        <time>2010-10-10T07:43:45Z</time>
      </trkpt>
      <trkpt lat="49.37492" lon="2.35153">
        <ele>148.66</ele>
        <time>2010-10-10T07:43:48Z</time>
      </trkpt>
      <trkpt lat="49.37499" lon="2.35129">
        <ele>148.18</ele>
        <time>2010-10-10T07:43:53Z</time>
      </trkpt>
      <trkpt lat="49.37499" lon="2.35114">
        <ele>148.66</ele>
        <time>2010-10-10T07:43:57Z</time>
      </trkpt>
      <trkpt lat="49.37503" lon="2.35106">
        <ele>148.66</ele>
        <time>2010-10-10T07:44:00Z</time>
      </trkpt>
      <trkpt lat="49.3751" lon="2.35098">
        <ele>148.18</ele>
        <time>2010-10-10T07:44:04Z</time>
      </trkpt>
      <trkpt lat="49.37513" lon="2.3508">
        <ele>148.66</ele>
        <time>2010-10-10T07:44:08Z</time>
      </trkpt>
      <trkpt lat="49.37518" lon="2.35041">
        <ele>148.66</ele>
        <time>2010-10-10T07:44:17Z</time>
      </trkpt>
      <trkpt lat="49.37528" lon="2.34989">
        <ele>149.14</ele>
        <time>2010-10-10T07:44:27Z</time>
      </trkpt>
      <trkpt lat="49.37532" lon="2.34972">
        <ele>148.66</ele>
        <time>2010-10-10T07:44:31Z</time>
      </trkpt>
      <trkpt lat="49.37536" lon="2.34947">
        <ele>148.66</ele>
        <time>2010-10-10T07:44:36Z</time>
      </trkpt>
      <trkpt lat="49.37542" lon="2.349">
        <ele>148.66</ele>
        <time>2010-10-10T07:44:47Z</time>
      </trkpt>
      <trkpt lat="49.37542" lon="2.34835">
        <ele>149.62</ele>
        <time>2010-10-10T07:44:59Z</time>
      </trkpt>
      <trkpt lat="49.37545" lon="2.34813">
        <ele>149.14</ele>
        <time>2010-10-10T07:45:06Z</time>
      </trkpt>
      <trkpt lat="49.37544" lon="2.34807">
        <ele>149.14</ele>
        <time>2010-10-10T07:45:08Z</time>
      </trkpt>
      <trkpt lat="49.37549" lon="2.34788">
        <ele>148.66</ele>
        <time>2010-10-10T07:45:13Z</time>
      </trkpt>
      <trkpt lat="49.37552" lon="2.34767">
        <ele>148.66</ele>
        <time>2010-10-10T07:45:17Z</time>
      </trkpt>
      <trkpt lat="49.37558" lon="2.34733">
        <ele>148.66</ele>
        <time>2010-10-10T07:45:23Z</time>
      </trkpt>
      <trkpt lat="49.37571" lon="2.34674">
        <ele>147.7</ele>
        <time>2010-10-10T07:45:35Z</time>
      </trkpt>
      <trkpt lat="49.37578" lon="2.34632">
        <ele>147.7</ele>
        <time>2010-10-10T07:45:43Z</time>
      </trkpt>
      <trkpt lat="49.3758" lon="2.34586">
        <ele>146.74</ele>
        <time>2010-10-10T07:45:54Z</time>
      </trkpt>
      <trkpt lat="49.37584" lon="2.34561">
        <ele>146.74</ele>
        <time>2010-10-10T07:46:02Z</time>
      </trkpt>
      <trkpt lat="49.37589" lon="2.34529">
        <ele>146.74</ele>
        <time>2010-10-10T07:46:09Z</time>
      </trkpt>
      <trkpt lat="49.37599" lon="2.34464">
        <ele>145.78</ele>
        <time>2010-10-10T07:46:21Z</time>
      </trkpt>
      <trkpt lat="49.3761" lon="2.34418">
        <ele>145.78</ele>
        <time>2010-10-10T07:46:33Z</time>
      </trkpt>
      <trkpt lat="49.37611" lon="2.34413">
        <ele>146.26</ele>
        <time>2010-10-10T07:46:34Z</time>
      </trkpt>
      <trkpt lat="49.37608" lon="2.34389">
        <ele>145.78</ele>
        <time>2010-10-10T07:46:39Z</time>
      </trkpt>
      <trkpt lat="49.37604" lon="2.34346">
        <ele>145.3</ele>
        <time>2010-10-10T07:46:48Z</time>
      </trkpt>
      <trkpt lat="49.37607" lon="2.34332">
        <ele>145.3</ele>
        <time>2010-10-10T07:47:18Z</time>
      </trkpt>
      <trkpt lat="49.37607" lon="2.34312">
        <ele>144.34</ele>
        <time>2010-10-10T07:48:55Z</time>
      </trkpt>
      <trkpt lat="49.37605" lon="2.34292">
        <ele>144.34</ele>
        <time>2010-10-10T07:49:03Z</time>
      </trkpt>
      <trkpt lat="49.37603" lon="2.34284">
        <ele>144.34</ele>
        <time>2010-10-10T07:49:06Z</time>
      </trkpt>
      <trkpt lat="49.37598" lon="2.34279">
        <ele>144.34</ele>
        <time>2010-10-10T07:49:09Z</time>
      </trkpt>
      <trkpt lat="49.37587" lon="2.34228">
        <ele>144.82</ele>
        <time>2010-10-10T07:49:19Z</time>
      </trkpt>
      <trkpt lat="49.3757" lon="2.3418">
        <ele>144.34</ele>
        <time>2010-10-10T07:49:31Z</time>
      </trkpt>
      <trkpt lat="49.37546" lon="2.34142">
        <ele>144.34</ele>
        <time>2010-10-10T07:49:44Z</time>
      </trkpt>
      <trkpt lat="49.37538" lon="2.34121">
        <ele>144.34</ele>
        <time>2010-10-10T07:49:50Z</time>
      </trkpt>
      <trkpt lat="49.37523" lon="2.34095">
        <ele>143.85</ele>
        <time>2010-10-10T07:49:59Z</time>
      </trkpt>
      <trkpt lat="49.37516" lon="2.34083">
        <ele>143.85</ele>
        <time>2010-10-10T07:50:02Z</time>
      </trkpt>
      <trkpt lat="49.37506" lon="2.34069">
        <ele>143.85</ele>
        <time>2010-10-10T07:50:09Z</time>
      </trkpt>
      <trkpt lat="49.37494" lon="2.34042">
        <ele>143.85</ele>
        <time>2010-10-10T07:50:16Z</time>
      </trkpt>
      <trkpt lat="49.37476" lon="2.34002">
        <ele>143.85</ele>
        <time>2010-10-10T07:50:28Z</time>
      </trkpt>
      <trkpt lat="49.37454" lon="2.33962">
        <ele>143.37</ele>
        <time>2010-10-10T07:50:40Z</time>
      </trkpt>
      <trkpt lat="49.37447" lon="2.33949">
        <ele>143.85</ele>
        <time>2010-10-10T07:50:44Z</time>
      </trkpt>
      <trkpt lat="49.37434" lon="2.33923">
        <ele>143.37</ele>
        <time>2010-10-10T07:50:50Z</time>
      </trkpt>
      <trkpt lat="49.37427" lon="2.33916">
        <ele>143.85</ele>
        <time>2010-10-10T07:50:53Z</time>
      </trkpt>
      <trkpt lat="49.3743" lon="2.33904">
        <ele>143.37</ele>
        <time>2010-10-10T07:51:04Z</time>
      </trkpt>
      <trkpt lat="49.37432" lon="2.33897">
        <ele>143.85</ele>
        <time>2010-10-10T07:51:08Z</time>
      </trkpt>
      <trkpt lat="49.37448" lon="2.33875">
        <ele>144.34</ele>
        <time>2010-10-10T07:51:17Z</time>
      </trkpt>
      <trkpt lat="49.37449" lon="2.33876">
        <ele>144.34</ele>
        <time>2010-10-10T07:51:18Z</time>
      </trkpt>
      <trkpt lat="49.37457" lon="2.3387">
        <ele>144.34</ele>
        <time>2010-10-10T07:51:22Z</time>
      </trkpt>
      <trkpt lat="49.37482" lon="2.33853">
        <ele>143.85</ele>
        <time>2010-10-10T07:51:34Z</time>
      </trkpt>
      <trkpt lat="49.37495" lon="2.33847">
        <ele>144.82</ele>
        <time>2010-10-10T07:51:40Z</time>
      </trkpt>
      <trkpt lat="49.37507" lon="2.33841">
        <ele>144.34</ele>
        <time>2010-10-10T07:51:44Z</time>
      </trkpt>
      <trkpt lat="49.37514" lon="2.33836">
        <ele>144.82</ele>
        <time>2010-10-10T07:51:47Z</time>
      </trkpt>
      <trkpt lat="49.37536" lon="2.33803">
        <ele>144.82</ele>
        <time>2010-10-10T07:51:59Z</time>
      </trkpt>
      <trkpt lat="49.37545" lon="2.33796">
        <ele>144.34</ele>
        <time>2010-10-10T07:52:05Z</time>
      </trkpt>
      <trkpt lat="49.37561" lon="2.33786">
        <ele>144.34</ele>
        <time>2010-10-10T07:52:13Z</time>
      </trkpt>
      <trkpt lat="49.37574" lon="2.33771">
        <ele>144.34</ele>
        <time>2010-10-10T07:52:21Z</time>
      </trkpt>
      <trkpt lat="49.37582" lon="2.33768">
        <ele>144.34</ele>
        <time>2010-10-10T07:52:24Z</time>
      </trkpt>
      <trkpt lat="49.37607" lon="2.3375">
        <ele>143.37</ele>
        <time>2010-10-10T07:52:34Z</time>
      </trkpt>
      <trkpt lat="49.37616" lon="2.33746">
        <ele>143.37</ele>
        <time>2010-10-10T07:52:40Z</time>
      </trkpt>
      <trkpt lat="49.37656" lon="2.33709">
        <ele>142.89</ele>
        <time>2010-10-10T07:52:52Z</time>
      </trkpt>
      <trkpt lat="49.37665" lon="2.337">
        <ele>142.89</ele>
        <time>2010-10-10T07:52:56Z</time>
      </trkpt>
      <trkpt lat="49.3768" lon="2.33681">
        <ele>142.41</ele>
        <time>2010-10-10T07:53:03Z</time>
      </trkpt>
      <trkpt lat="49.37693" lon="2.33657">
        <ele>141.93</ele>
        <time>2010-10-10T07:53:10Z</time>
      </trkpt>
      <trkpt lat="49.37699" lon="2.33645">
        <ele>141.93</ele>
        <time>2010-10-10T07:53:13Z</time>
      </trkpt>
      <trkpt lat="49.37707" lon="2.33632">
        <ele>141.93</ele>
        <time>2010-10-10T07:53:19Z</time>
      </trkpt>
      <trkpt lat="49.37722" lon="2.33635">
        <ele>141.45</ele>
        <time>2010-10-10T07:53:31Z</time>
      </trkpt>
      <trkpt lat="49.37735" lon="2.33646">
        <ele>140.01</ele>
        <time>2010-10-10T07:53:57Z</time>
      </trkpt>
      <trkpt lat="49.37753" lon="2.33658">
        <ele>139.53</ele>
        <time>2010-10-10T07:54:04Z</time>
      </trkpt>
      <trkpt lat="49.37787" lon="2.33649">
        <ele>137.13</ele>
        <time>2010-10-10T07:54:17Z</time>
      </trkpt>
      <trkpt lat="49.37806" lon="2.33647">
        <ele>136.16</ele>
        <time>2010-10-10T07:54:23Z</time>
      </trkpt>
      <trkpt lat="49.37816" lon="2.33644">
        <ele>135.2</ele>
        <time>2010-10-10T07:54:28Z</time>
      </trkpt>
      <trkpt lat="49.37856" lon="2.3365">
        <ele>131.84</ele>
        <time>2010-10-10T07:54:39Z</time>
      </trkpt>
      <trkpt lat="49.3786" lon="2.33654">
        <ele>130.88</ele>
        <time>2010-10-10T07:54:41Z</time>
      </trkpt>
      <trkpt lat="49.37866" lon="2.33661">
        <ele>128.95</ele>
        <time>2010-10-10T07:54:44Z</time>
      </trkpt>
      <trkpt lat="49.37885" lon="2.3367">
        <ele>125.59</ele>
        <time>2010-10-10T07:54:50Z</time>
      </trkpt>
      <trkpt lat="49.37896" lon="2.3368">
        <ele>122.22</ele>
        <time>2010-10-10T07:54:55Z</time>
      </trkpt>
      <trkpt lat="49.37895" lon="2.33687">
        <ele>118.86</ele>
        <time>2010-10-10T07:54:58Z</time>
      </trkpt>
      <trkpt lat="49.37899" lon="2.33698">
        <ele>117.42</ele>
        <time>2010-10-10T07:55:02Z</time>
      </trkpt>
      <trkpt lat="49.3791" lon="2.33698">
        <ele>117.42</ele>
        <time>2010-10-10T07:55:04Z</time>
      </trkpt>
      <trkpt lat="49.37945" lon="2.3368">
        <ele>113.09</ele>
        <time>2010-10-10T07:55:14Z</time>
      </trkpt>
      <trkpt lat="49.3795" lon="2.33683">
        <ele>113.57</ele>
        <time>2010-10-10T07:55:15Z</time>
      </trkpt>
      <trkpt lat="49.37973" lon="2.33677">
        <ele>113.57</ele>
        <time>2010-10-10T07:55:24Z</time>
      </trkpt>
      <trkpt lat="49.38001" lon="2.33682">
        <ele>115.01</ele>
        <time>2010-10-10T07:55:29Z</time>
      </trkpt>
      <trkpt lat="49.38011" lon="2.33678">
        <ele>115.98</ele>
        <time>2010-10-10T07:55:31Z</time>
      </trkpt>
      <trkpt lat="49.38027" lon="2.3367">
        <ele>117.42</ele>
        <time>2010-10-10T07:55:35Z</time>
      </trkpt>
      <trkpt lat="49.38037" lon="2.33666">
        <ele>120.78</ele>
        <time>2010-10-10T07:55:39Z</time>
      </trkpt>
      <trkpt lat="49.38048" lon="2.33664">
        <ele>124.15</ele>
        <time>2010-10-10T07:55:45Z</time>
      </trkpt>
      <trkpt lat="49.38056" lon="2.33662">
        <ele>127.51</ele>
        <time>2010-10-10T07:55:53Z</time>
      </trkpt>
      <trkpt lat="49.3807" lon="2.33657">
        <ele>128.95</ele>
        <time>2010-10-10T07:55:58Z</time>
      </trkpt>
      <trkpt lat="49.381" lon="2.33653">
        <ele>131.84</ele>
        <time>2010-10-10T07:56:11Z</time>
      </trkpt>
      <trkpt lat="49.38129" lon="2.33653">
        <ele>133.28</ele>
        <time>2010-10-10T07:56:22Z</time>
      </trkpt>
      <trkpt lat="49.38134" lon="2.33653">
        <ele>134.72</ele>
        <time>2010-10-10T07:56:25Z</time>
      </trkpt>
      <trkpt lat="49.38157" lon="2.33651">
        <ele>136.64</ele>
        <time>2010-10-10T07:56:37Z</time>
      </trkpt>
      <trkpt lat="49.38185" lon="2.33648">
        <ele>138.09</ele>
        <time>2010-10-10T07:56:49Z</time>
      </trkpt>
      <trkpt lat="49.38204" lon="2.33648">
        <ele>139.53</ele>
        <time>2010-10-10T07:56:56Z</time>
      </trkpt>
      <trkpt lat="49.38215" lon="2.33652">
        <ele>139.53</ele>
        <time>2010-10-10T07:57:00Z</time>
      </trkpt>
      <trkpt lat="49.38238" lon="2.33661">
        <ele>140.97</ele>
        <time>2010-10-10T07:57:08Z</time>
      </trkpt>
      <trkpt lat="49.38247" lon="2.33652">
        <ele>140.97</ele>
        <time>2010-10-10T07:57:13Z</time>
      </trkpt>
      <trkpt lat="49.38281" lon="2.33647">
        <ele>142.41</ele>
        <time>2010-10-10T07:57:25Z</time>
      </trkpt>
      <trkpt lat="49.38309" lon="2.33648">
        <ele>141.93</ele>
        <time>2010-10-10T07:57:35Z</time>
      </trkpt>
      <trkpt lat="49.38317" lon="2.33648">
        <ele>142.41</ele>
        <time>2010-10-10T07:57:38Z</time>
      </trkpt>
      <trkpt lat="49.38362" lon="2.33649">
        <ele>142.89</ele>
        <time>2010-10-10T07:57:52Z</time>
      </trkpt>
      <trkpt lat="49.38399" lon="2.33646">
        <ele>142.89</ele>
        <time>2010-10-10T07:58:04Z</time>
      </trkpt>
      <trkpt lat="49.38402" lon="2.33646">
        <ele>143.37</ele>
        <time>2010-10-10T07:58:05Z</time>
      </trkpt>
      <trkpt lat="49.38428" lon="2.33656">
        <ele>143.37</ele>
        <time>2010-10-10T07:58:22Z</time>
      </trkpt>
      <trkpt lat="49.38434" lon="2.33687">
        <ele>143.37</ele>
        <time>2010-10-10T07:58:32Z</time>
      </trkpt>
      <trkpt lat="49.38428" lon="2.3371">
        <ele>143.37</ele>
        <time>2010-10-10T07:58:53Z</time>
      </trkpt>
      <trkpt lat="49.38426" lon="2.33734">
        <ele>142.89</ele>
        <time>2010-10-10T07:59:02Z</time>
      </trkpt>
      <trkpt lat="49.38424" lon="2.3374">
        <ele>143.85</ele>
        <time>2010-10-10T07:59:05Z</time>
      </trkpt>
      <trkpt lat="49.38418" lon="2.33762">
        <ele>142.41</ele>
        <time>2010-10-10T07:59:17Z</time>
      </trkpt>
      <trkpt lat="49.3842" lon="2.33785">
        <ele>142.89</ele>
        <time>2010-10-10T07:59:28Z</time>
      </trkpt>
      <trkpt lat="49.38412" lon="2.33808">
        <ele>141.45</ele>
        <time>2010-10-10T07:59:37Z</time>
      </trkpt>
      <trkpt lat="49.38405" lon="2.33853">
        <ele>141.93</ele>
        <time>2010-10-10T08:00:01Z</time>
      </trkpt>
      <trkpt lat="49.38403" lon="2.33868">
        <ele>141.93</ele>
        <time>2010-10-10T08:00:08Z</time>
      </trkpt>
      <trkpt lat="49.38402" lon="2.33897">
        <ele>141.45</ele>
        <time>2010-10-10T08:00:22Z</time>
      </trkpt>
      <trkpt lat="49.38406" lon="2.33905">
        <ele>140.97</ele>
        <time>2010-10-10T08:00:26Z</time>
      </trkpt>
      <trkpt lat="49.38403" lon="2.33912">
        <ele>140.97</ele>
        <time>2010-10-10T08:00:30Z</time>
      </trkpt>
      <trkpt lat="49.38394" lon="2.33926">
        <ele>140.49</ele>
        <time>2010-10-10T08:00:41Z</time>
      </trkpt>
      <trkpt lat="49.38389" lon="2.33962">
        <ele>139.05</ele>
        <time>2010-10-10T08:01:04Z</time>
      </trkpt>
      <trkpt lat="49.38386" lon="2.33984">
        <ele>139.05</ele>
        <time>2010-10-10T08:01:10Z</time>
      </trkpt>
      <trkpt lat="49.38373" lon="2.34034">
        <ele>137.13</ele>
        <time>2010-10-10T08:01:23Z</time>
      </trkpt>
      <trkpt lat="49.38364" lon="2.3407">
        <ele>136.64</ele>
        <time>2010-10-10T08:01:33Z</time>
      </trkpt>
      <trkpt lat="49.3836" lon="2.34096">
        <ele>134.72</ele>
        <time>2010-10-10T08:01:39Z</time>
      </trkpt>
      <trkpt lat="49.3836" lon="2.34099">
        <ele>134.72</ele>
        <time>2010-10-10T08:01:42Z</time>
      </trkpt>
      <trkpt lat="49.38356" lon="2.34136">
        <ele>131.84</ele>
        <time>2010-10-10T08:01:54Z</time>
      </trkpt>
      <trkpt lat="49.38359" lon="2.34154">
        <ele>131.36</ele>
        <time>2010-10-10T08:01:57Z</time>
      </trkpt>
      <trkpt lat="49.38344" lon="2.34166">
        <ele>129.43</ele>
        <time>2010-10-10T08:02:06Z</time>
      </trkpt>
      <trkpt lat="49.38331" lon="2.34168">
        <ele>127.99</ele>
        <time>2010-10-10T08:02:10Z</time>
      </trkpt>
      <trkpt lat="49.38319" lon="2.34172">
        <ele>127.03</ele>
        <time>2010-10-10T08:02:15Z</time>
      </trkpt>
      <trkpt lat="49.38296" lon="2.34174">
        <ele>122.71</ele>
        <time>2010-10-10T08:02:22Z</time>
      </trkpt>
      <trkpt lat="49.3828" lon="2.34186">
        <ele>119.34</ele>
        <time>2010-10-10T08:02:28Z</time>
      </trkpt>
      <trkpt lat="49.38278" lon="2.34188">
        <ele>118.86</ele>
        <time>2010-10-10T08:02:29Z</time>
      </trkpt>
      <trkpt lat="49.38276" lon="2.34191">
        <ele>118.86</ele>
        <time>2010-10-10T08:02:30Z</time>
      </trkpt>
      <trkpt lat="49.38267" lon="2.3421">
        <ele>115.5</ele>
        <time>2010-10-10T08:02:37Z</time>
      </trkpt>
      <trkpt lat="49.38261" lon="2.34224">
        <ele>113.09</ele>
        <time>2010-10-10T08:02:41Z</time>
      </trkpt>
      <trkpt lat="49.3826" lon="2.34234">
        <ele>111.65</ele>
        <time>2010-10-10T08:02:44Z</time>
      </trkpt>
      <trkpt lat="49.38243" lon="2.34251">
        <ele>106.84</ele>
        <time>2010-10-10T08:02:50Z</time>
      </trkpt>
      <trkpt lat="49.3824" lon="2.3425">
        <ele>106.84</ele>
        <time>2010-10-10T08:02:51Z</time>
      </trkpt>
      <trkpt lat="49.38231" lon="2.34236">
        <ele>103.48</ele>
        <time>2010-10-10T08:02:57Z</time>
      </trkpt>
      <trkpt lat="49.38219" lon="2.34216">
        <ele>100.11</ele>
        <time>2010-10-10T08:03:04Z</time>
      </trkpt>
      <trkpt lat="49.38212" lon="2.34201">
        <ele>98.19</ele>
        <time>2010-10-10T08:03:09Z</time>
      </trkpt>
      <trkpt lat="49.38204" lon="2.34189">
        <ele>96.27</ele>
        <time>2010-10-10T08:03:13Z</time>
      </trkpt>
      <trkpt lat="49.38203" lon="2.34188">
        <ele>93.87</ele>
        <time>2010-10-10T08:03:17Z</time>
      </trkpt>
      <trkpt lat="49.38201" lon="2.3419">
        <ele>90.02</ele>
        <time>2010-10-10T08:03:24Z</time>
      </trkpt>
      <trkpt lat="49.38201" lon="2.34193">
        <ele>89.54</ele>
        <time>2010-10-10T08:03:26Z</time>
      </trkpt>
      <trkpt lat="49.38198" lon="2.34199">
        <ele>87.14</ele>
        <time>2010-10-10T08:03:34Z</time>
      </trkpt>
      <trkpt lat="49.38187" lon="2.34202">
        <ele>87.14</ele>
        <time>2010-10-10T08:03:41Z</time>
      </trkpt>
      <trkpt lat="49.38123" lon="2.34202">
        <ele>86.18</ele>
        <time>2010-10-10T08:03:50Z</time>
      </trkpt>
      <trkpt lat="49.38114" lon="2.34202">
        <ele>86.66</ele>
        <time>2010-10-10T08:03:51Z</time>
      </trkpt>
      <trkpt lat="49.38106" lon="2.34201">
        <ele>85.69</ele>
        <time>2010-10-10T08:03:52Z</time>
      </trkpt>
      <trkpt lat="49.381" lon="2.34201">
        <ele>85.69</ele>
        <time>2010-10-10T08:03:53Z</time>
      </trkpt>
      <trkpt lat="49.38054" lon="2.34214">
        <ele>86.18</ele>
        <time>2010-10-10T08:04:01Z</time>
      </trkpt>
      <trkpt lat="49.38038" lon="2.34226">
        <ele>85.21</ele>
        <time>2010-10-10T08:04:06Z</time>
      </trkpt>
      <trkpt lat="49.3804" lon="2.34271">
        <ele>85.21</ele>
        <time>2010-10-10T08:04:17Z</time>
      </trkpt>
      <trkpt lat="49.38054" lon="2.34342">
        <ele>85.69</ele>
        <time>2010-10-10T08:04:30Z</time>
      </trkpt>
      <trkpt lat="49.38058" lon="2.34361">
        <ele>86.66</ele>
        <time>2010-10-10T08:04:36Z</time>
      </trkpt>
      <trkpt lat="49.38069" lon="2.34387">
        <ele>87.14</ele>
        <time>2010-10-10T08:04:42Z</time>
      </trkpt>
      <trkpt lat="49.38085" lon="2.34424">
        <ele>87.62</ele>
        <time>2010-10-10T08:04:53Z</time>
      </trkpt>
      <trkpt lat="49.38078" lon="2.34456">
        <ele>89.54</ele>
        <time>2010-10-10T08:05:04Z</time>
      </trkpt>
      <trkpt lat="49.38086" lon="2.34536">
        <ele>90.98</ele>
        <time>2010-10-10T08:05:27Z</time>
      </trkpt>
      <trkpt lat="49.38087" lon="2.34553">
        <ele>90.98</ele>
        <time>2010-10-10T08:05:31Z</time>
      </trkpt>
      <trkpt lat="49.38092" lon="2.3459">
        <ele>91.46</ele>
        <time>2010-10-10T08:05:39Z</time>
      </trkpt>
      <trkpt lat="49.38093" lon="2.34628">
        <ele>89.54</ele>
        <time>2010-10-10T08:05:48Z</time>
      </trkpt>
      <trkpt lat="49.38089" lon="2.34685">
        <ele>92.42</ele>
        <time>2010-10-10T08:06:00Z</time>
      </trkpt>
      <trkpt lat="49.38091" lon="2.34721">
        <ele>94.35</ele>
        <time>2010-10-10T08:06:08Z</time>
      </trkpt>
      <trkpt lat="49.38088" lon="2.3474">
        <ele>94.83</ele>
        <time>2010-10-10T08:06:13Z</time>
      </trkpt>
      <trkpt lat="49.38096" lon="2.34758">
        <ele>95.31</ele>
        <time>2010-10-10T08:06:18Z</time>
      </trkpt>
      <trkpt lat="49.38107" lon="2.34785">
        <ele>94.35</ele>
        <time>2010-10-10T08:06:26Z</time>
      </trkpt>
      <trkpt lat="49.38132" lon="2.3484">
        <ele>90.98</ele>
        <time>2010-10-10T08:06:39Z</time>
      </trkpt>
      <trkpt lat="49.38149" lon="2.34887">
        <ele>93.87</ele>
        <time>2010-10-10T08:06:52Z</time>
      </trkpt>
      <trkpt lat="49.3816" lon="2.34915">
        <ele>92.42</ele>
        <time>2010-10-10T08:07:02Z</time>
      </trkpt>
      <trkpt lat="49.38195" lon="2.34937">
        <ele>92.9</ele>
        <time>2010-10-10T08:07:15Z</time>
      </trkpt>
      <trkpt lat="49.38197" lon="2.34931">
        <ele>92.9</ele>
        <time>2010-10-10T08:07:17Z</time>
      </trkpt>
      <trkpt lat="49.38206" lon="2.34907">
        <ele>92.9</ele>
        <time>2010-10-10T08:07:33Z</time>
      </trkpt>
      <trkpt lat="49.3821" lon="2.34898">
        <ele>90.98</ele>
        <time>2010-10-10T08:08:07Z</time>
      </trkpt>
      <trkpt lat="49.38213" lon="2.34875">
        <ele>87.62</ele>
        <time>2010-10-10T08:08:22Z</time>
      </trkpt>
      <trkpt lat="49.38214" lon="2.34868">
        <ele>86.66</ele>
        <time>2010-10-10T08:08:24Z</time>
      </trkpt>
      <trkpt lat="49.38218" lon="2.34857">
        <ele>85.21</ele>
        <time>2010-10-10T08:08:27Z</time>
      </trkpt>
      <trkpt lat="49.3822" lon="2.34847">
        <ele>83.77</ele>
        <time>2010-10-10T08:08:29Z</time>
      </trkpt>
      <trkpt lat="49.38224" lon="2.34815">
        <ele>82.81</ele>
        <time>2010-10-10T08:08:42Z</time>
      </trkpt>
      <trkpt lat="49.38221" lon="2.34811">
        <ele>81.85</ele>
        <time>2010-10-10T08:09:16Z</time>
      </trkpt>
      <trkpt lat="49.38215" lon="2.34801">
        <ele>83.77</ele>
        <time>2010-10-10T08:09:26Z</time>
      </trkpt>
      <trkpt lat="49.38209" lon="2.34798">
        <ele>83.77</ele>
        <time>2010-10-10T08:09:27Z</time>
      </trkpt>
      <trkpt lat="49.38188" lon="2.34762">
        <ele>84.25</ele>
        <time>2010-10-10T08:09:40Z</time>
      </trkpt>
      <trkpt lat="49.38185" lon="2.34714">
        <ele>84.25</ele>
        <time>2010-10-10T08:09:55Z</time>
      </trkpt>
      <trkpt lat="49.38186" lon="2.34696">
        <ele>82.33</ele>
        <time>2010-10-10T08:09:59Z</time>
      </trkpt>
      <trkpt lat="49.38185" lon="2.34694">
        <ele>82.33</ele>
        <time>2010-10-10T08:10:00Z</time>
      </trkpt>
      <trkpt lat="49.38183" lon="2.34684">
        <ele>81.85</ele>
        <time>2010-10-10T08:10:02Z</time>
      </trkpt>
      <trkpt lat="49.38182" lon="2.34658">
        <ele>82.81</ele>
        <time>2010-10-10T08:10:07Z</time>
      </trkpt>
      <trkpt lat="49.38178" lon="2.34625">
        <ele>84.25</ele>
        <time>2010-10-10T08:10:13Z</time>
      </trkpt>
      <trkpt lat="49.38176" lon="2.34615">
        <ele>84.73</ele>
        <time>2010-10-10T08:10:16Z</time>
      </trkpt>
      <trkpt lat="49.3817" lon="2.346">
        <ele>84.25</ele>
        <time>2010-10-10T08:10:20Z</time>
      </trkpt>
      <trkpt lat="49.38159" lon="2.34587">
        <ele>83.77</ele>
        <time>2010-10-10T08:10:25Z</time>
      </trkpt>
      <trkpt lat="49.38153" lon="2.34545">
        <ele>84.25</ele>
        <time>2010-10-10T08:10:34Z</time>
      </trkpt>
      <trkpt lat="49.38153" lon="2.34526">
        <ele>83.77</ele>
        <time>2010-10-10T08:10:47Z</time>
      </trkpt>
      <trkpt lat="49.38148" lon="2.34498">
        <ele>83.77</ele>
        <time>2010-10-10T08:10:57Z</time>
      </trkpt>
      <trkpt lat="49.38142" lon="2.34476">
        <ele>83.77</ele>
        <time>2010-10-10T08:11:05Z</time>
      </trkpt>
      <trkpt lat="49.38136" lon="2.34456">
        <ele>83.29</ele>
        <time>2010-10-10T08:11:10Z</time>
      </trkpt>
      <trkpt lat="49.38107" lon="2.34411">
        <ele>85.69</ele>
        <time>2010-10-10T08:11:22Z</time>
      </trkpt>
      <trkpt lat="49.38085" lon="2.34373">
        <ele>85.69</ele>
        <time>2010-10-10T08:11:32Z</time>
      </trkpt>
      <trkpt lat="49.3808" lon="2.34363">
        <ele>85.21</ele>
        <time>2010-10-10T08:11:35Z</time>
      </trkpt>
      <trkpt lat="49.38079" lon="2.34356">
        <ele>84.73</ele>
        <time>2010-10-10T08:11:37Z</time>
      </trkpt>
      <trkpt lat="49.38081" lon="2.3435">
        <ele>84.73</ele>
        <time>2010-10-10T08:11:39Z</time>
      </trkpt>
      <trkpt lat="49.38095" lon="2.3434">
        <ele>84.73</ele>
        <time>2010-10-10T08:11:45Z</time>
      </trkpt>
      <trkpt lat="49.38114" lon="2.34322">
        <ele>83.29</ele>
        <time>2010-10-10T08:12:46Z</time>
      </trkpt>
      <trkpt lat="49.38116" lon="2.34327">
        <ele>83.29</ele>
        <time>2010-10-10T08:12:48Z</time>
      </trkpt>
      <trkpt lat="49.3823" lon="2.34448">
        <ele>83.29</ele>
        <time>2010-10-10T08:12:55Z</time>
      </trkpt>
      <trkpt lat="49.38246" lon="2.34476">
        <ele>82.81</ele>
        <time>2010-10-10T08:13:05Z</time>
      </trkpt>
      <trkpt lat="49.38248" lon="2.34484">
        <ele>82.81</ele>
        <time>2010-10-10T08:13:08Z</time>
      </trkpt>
      <trkpt lat="49.38249" lon="2.34486">
        <ele>82.81</ele>
        <time>2010-10-10T08:13:09Z</time>
      </trkpt>
      <trkpt lat="49.38263" lon="2.34522">
        <ele>82.33</ele>
        <time>2010-10-10T08:13:20Z</time>
      </trkpt>
      <trkpt lat="49.38269" lon="2.34544">
        <ele>81.85</ele>
        <time>2010-10-10T08:13:27Z</time>
      </trkpt>
      <trkpt lat="49.38271" lon="2.34551">
        <ele>81.85</ele>
        <time>2010-10-10T08:13:28Z</time>
      </trkpt>
      <trkpt lat="49.38272" lon="2.34555">
        <ele>81.85</ele>
        <time>2010-10-10T08:13:29Z</time>
      </trkpt>
      <trkpt lat="49.38273" lon="2.34559">
        <ele>82.33</ele>
        <time>2010-10-10T08:13:30Z</time>
      </trkpt>
      <trkpt lat="49.38275" lon="2.34565">
        <ele>81.85</ele>
        <time>2010-10-10T08:13:31Z</time>
      </trkpt>
      <trkpt lat="49.38283" lon="2.34575">
        <ele>82.33</ele>
        <time>2010-10-10T08:13:45Z</time>
      </trkpt>
      <trkpt lat="49.38294" lon="2.34604">
        <ele>81.85</ele>
        <time>2010-10-10T08:14:06Z</time>
      </trkpt>
      <trkpt lat="49.38301" lon="2.3459">
        <ele>82.81</ele>
        <time>2010-10-10T08:15:07Z</time>
      </trkpt>
      <trkpt lat="49.38299" lon="2.34585">
        <ele>82.81</ele>
        <time>2010-10-10T08:15:09Z</time>
      </trkpt>
      <trkpt lat="49.38297" lon="2.34561">
        <ele>86.18</ele>
        <time>2010-10-10T08:15:17Z</time>
      </trkpt>
      <trkpt lat="49.38302" lon="2.34529">
        <ele>89.06</ele>
        <time>2010-10-10T08:15:27Z</time>
      </trkpt>
      <trkpt lat="49.38313" lon="2.34509">
        <ele>90.98</ele>
        <time>2010-10-10T08:15:34Z</time>
      </trkpt>
      <trkpt lat="49.38312" lon="2.34492">
        <ele>92.42</ele>
        <time>2010-10-10T08:15:38Z</time>
      </trkpt>
      <trkpt lat="49.38312" lon="2.34488">
        <ele>92.9</ele>
        <time>2010-10-10T08:15:39Z</time>
      </trkpt>
      <trkpt lat="49.38311" lon="2.34484">
        <ele>93.39</ele>
        <time>2010-10-10T08:15:40Z</time>
      </trkpt>
      <trkpt lat="49.38321" lon="2.34442">
        <ele>95.79</ele>
        <time>2010-10-10T08:15:51Z</time>
      </trkpt>
      <trkpt lat="49.38321" lon="2.34438">
        <ele>96.27</ele>
        <time>2010-10-10T08:15:52Z</time>
      </trkpt>
      <trkpt lat="49.38322" lon="2.34396">
        <ele>99.63</ele>
        <time>2010-10-10T08:16:02Z</time>
      </trkpt>
      <trkpt lat="49.38323" lon="2.34394">
        <ele>100.11</ele>
        <time>2010-10-10T08:16:03Z</time>
      </trkpt>
      <trkpt lat="49.38335" lon="2.34368">
        <ele>103.48</ele>
        <time>2010-10-10T08:16:11Z</time>
      </trkpt>
      <trkpt lat="49.38336" lon="2.34366">
        <ele>104.44</ele>
        <time>2010-10-10T08:16:13Z</time>
      </trkpt>
      <trkpt lat="49.3834" lon="2.34358">
        <ele>108.29</ele>
        <time>2010-10-10T08:16:20Z</time>
      </trkpt>
      <trkpt lat="49.3834" lon="2.34355">
        <ele>109.25</ele>
        <time>2010-10-10T08:16:22Z</time>
      </trkpt>
      <trkpt lat="49.3834" lon="2.34345">
        <ele>112.61</ele>
        <time>2010-10-10T08:16:29Z</time>
      </trkpt>
      <trkpt lat="49.38344" lon="2.34335">
        <ele>115.5</ele>
        <time>2010-10-10T08:16:35Z</time>
      </trkpt>
      <trkpt lat="49.38346" lon="2.34333">
        <ele>116.46</ele>
        <time>2010-10-10T08:16:37Z</time>
      </trkpt>
      <trkpt lat="49.38344" lon="2.34321">
        <ele>118.86</ele>
        <time>2010-10-10T08:16:44Z</time>
      </trkpt>
      <trkpt lat="49.38344" lon="2.34319">
        <ele>119.34</ele>
        <time>2010-10-10T08:16:45Z</time>
      </trkpt>
      <trkpt lat="49.38349" lon="2.34299">
        <ele>121.26</ele>
        <time>2010-10-10T08:16:53Z</time>
      </trkpt>
      <trkpt lat="49.38346" lon="2.34284">
        <ele>123.67</ele>
        <time>2010-10-10T08:17:00Z</time>
      </trkpt>
      <trkpt lat="49.38345" lon="2.3427">
        <ele>126.07</ele>
        <time>2010-10-10T08:17:06Z</time>
      </trkpt>
      <trkpt lat="49.38343" lon="2.34263">
        <ele>127.03</ele>
        <time>2010-10-10T08:17:11Z</time>
      </trkpt>
      <trkpt lat="49.3834" lon="2.34244">
        <ele>129.92</ele>
        <time>2010-10-10T08:17:23Z</time>
      </trkpt>
      <trkpt lat="49.38345" lon="2.34237">
        <ele>127.99</ele>
        <time>2010-10-10T08:18:54Z</time>
      </trkpt>
      <trkpt lat="49.38345" lon="2.34237">
        <ele>127.99</ele>
        <time>2010-10-10T08:18:55Z</time>
      </trkpt>
      <trkpt lat="49.38344" lon="2.34236">
        <ele>127.51</ele>
        <time>2010-10-10T08:18:56Z</time>
      </trkpt>
      <trkpt lat="49.38343" lon="2.34237">
        <ele>127.51</ele>
        <time>2010-10-10T08:18:57Z</time>
      </trkpt>
      <trkpt lat="49.38339" lon="2.34259">
        <ele>125.11</ele>
        <time>2010-10-10T08:19:08Z</time>
      </trkpt>
      <trkpt lat="49.38344" lon="2.34266">
        <ele>124.63</ele>
        <time>2010-10-10T08:19:10Z</time>
      </trkpt>
      <trkpt lat="49.38341" lon="2.34274">
        <ele>124.15</ele>
        <time>2010-10-10T08:19:14Z</time>
      </trkpt>
      <trkpt lat="49.3834" lon="2.3428">
        <ele>124.15</ele>
        <time>2010-10-10T08:19:20Z</time>
      </trkpt>
      <trkpt lat="49.38355" lon="2.34299">
        <ele>123.67</ele>
        <time>2010-10-10T08:19:28Z</time>
      </trkpt>
      <trkpt lat="49.38379" lon="2.34333">
        <ele>123.19</ele>
        <time>2010-10-10T08:19:34Z</time>
      </trkpt>
      <trkpt lat="49.38392" lon="2.34363">
        <ele>120.78</ele>
        <time>2010-10-10T08:19:39Z</time>
      </trkpt>
      <trkpt lat="49.384" lon="2.34382">
        <ele>116.94</ele>
        <time>2010-10-10T08:19:42Z</time>
      </trkpt>
      <trkpt lat="49.38406" lon="2.34396">
        <ele>115.98</ele>
        <time>2010-10-10T08:19:44Z</time>
      </trkpt>
      <trkpt lat="49.38419" lon="2.34418">
        <ele>116.94</ele>
        <time>2010-10-10T08:19:59Z</time>
      </trkpt>
      <trkpt lat="49.38425" lon="2.34419">
        <ele>115.5</ele>
        <time>2010-10-10T08:20:24Z</time>
      </trkpt>
      <trkpt lat="49.38453" lon="2.34457">
        <ele>115.5</ele>
        <time>2010-10-10T08:20:35Z</time>
      </trkpt>
      <trkpt lat="49.38496" lon="2.34504">
        <ele>114.53</ele>
        <time>2010-10-10T08:20:44Z</time>
      </trkpt>
      <trkpt lat="49.38512" lon="2.34521">
        <ele>114.53</ele>
        <time>2010-10-10T08:20:57Z</time>
      </trkpt>
      <trkpt lat="49.38511" lon="2.34524">
        <ele>114.05</ele>
        <time>2010-10-10T08:21:02Z</time>
      </trkpt>
      <trkpt lat="49.38516" lon="2.34537">
        <ele>113.57</ele>
        <time>2010-10-10T08:21:10Z</time>
      </trkpt>
      <trkpt lat="49.38536" lon="2.34557">
        <ele>113.57</ele>
        <time>2010-10-10T08:21:19Z</time>
      </trkpt>
      <trkpt lat="49.38557" lon="2.34575">
        <ele>112.13</ele>
        <time>2010-10-10T08:21:31Z</time>
      </trkpt>
      <trkpt lat="49.3858" lon="2.34593">
        <ele>112.61</ele>
        <time>2010-10-10T08:21:36Z</time>
      </trkpt>
      <trkpt lat="49.38595" lon="2.34615">
        <ele>112.13</ele>
        <time>2010-10-10T08:21:43Z</time>
      </trkpt>
      <trkpt lat="49.38612" lon="2.34641">
        <ele>111.17</ele>
        <time>2010-10-10T08:21:53Z</time>
      </trkpt>
      <trkpt lat="49.38631" lon="2.34664">
        <ele>111.17</ele>
        <time>2010-10-10T08:22:02Z</time>
      </trkpt>
      <trkpt lat="49.3864" lon="2.34671">
        <ele>110.69</ele>
        <time>2010-10-10T08:22:06Z</time>
      </trkpt>
      <trkpt lat="49.38652" lon="2.34678">
        <ele>110.21</ele>
        <time>2010-10-10T08:22:11Z</time>
      </trkpt>
      <trkpt lat="49.38682" lon="2.34706">
        <ele>110.21</ele>
        <time>2010-10-10T08:22:24Z</time>
      </trkpt>
      <trkpt lat="49.38707" lon="2.34731">
        <ele>108.77</ele>
        <time>2010-10-10T08:22:35Z</time>
      </trkpt>
      <trkpt lat="49.38723" lon="2.34749">
        <ele>109.25</ele>
        <time>2010-10-10T08:22:43Z</time>
      </trkpt>
      <trkpt lat="49.3873" lon="2.34758">
        <ele>109.25</ele>
        <time>2010-10-10T08:22:46Z</time>
      </trkpt>
      <trkpt lat="49.38739" lon="2.34767">
        <ele>107.81</ele>
        <time>2010-10-10T08:22:51Z</time>
      </trkpt>
      <trkpt lat="49.38747" lon="2.34784">
        <ele>106.36</ele>
        <time>2010-10-10T08:22:57Z</time>
      </trkpt>
      <trkpt lat="49.3876" lon="2.34852">
        <ele>103</ele>
        <time>2010-10-10T08:23:10Z</time>
      </trkpt>
      <trkpt lat="49.38757" lon="2.34853">
        <ele>102.52</ele>
        <time>2010-10-10T08:23:11Z</time>
      </trkpt>
      <trkpt lat="49.38743" lon="2.34854">
        <ele>101.56</ele>
        <time>2010-10-10T08:23:16Z</time>
      </trkpt>
      <trkpt lat="49.3873" lon="2.34857">
        <ele>100.6</ele>
        <time>2010-10-10T08:23:21Z</time>
      </trkpt>
      <trkpt lat="49.38719" lon="2.34864">
        <ele>98.19</ele>
        <time>2010-10-10T08:23:31Z</time>
      </trkpt>
      <trkpt lat="49.38706" lon="2.34871">
        <ele>96.75</ele>
        <time>2010-10-10T08:23:35Z</time>
      </trkpt>
      <trkpt lat="49.38679" lon="2.34884">
        <ele>94.83</ele>
        <time>2010-10-10T08:23:45Z</time>
      </trkpt>
      <trkpt lat="49.38676" lon="2.34889">
        <ele>94.35</ele>
        <time>2010-10-10T08:23:48Z</time>
      </trkpt>
      <trkpt lat="49.38676" lon="2.34892">
        <ele>93.87</ele>
        <time>2010-10-10T08:23:51Z</time>
      </trkpt>
      <trkpt lat="49.38674" lon="2.34893">
        <ele>92.9</ele>
        <time>2010-10-10T08:23:53Z</time>
      </trkpt>
      <trkpt lat="49.38671" lon="2.34895">
        <ele>92.42</ele>
        <time>2010-10-10T08:23:55Z</time>
      </trkpt>
      <trkpt lat="49.38665" lon="2.34901">
        <ele>90.5</ele>
        <time>2010-10-10T08:23:58Z</time>
      </trkpt>
      <trkpt lat="49.38657" lon="2.34915">
        <ele>88.1</ele>
        <time>2010-10-10T08:24:06Z</time>
      </trkpt>
      <trkpt lat="49.38652" lon="2.34916">
        <ele>87.62</ele>
        <time>2010-10-10T08:24:08Z</time>
      </trkpt>
      <trkpt lat="49.38637" lon="2.34917">
        <ele>85.21</ele>
        <time>2010-10-10T08:24:13Z</time>
      </trkpt>
      <trkpt lat="49.38603" lon="2.34924">
        <ele>83.29</ele>
        <time>2010-10-10T08:24:20Z</time>
      </trkpt>
      <trkpt lat="49.38533" lon="2.34911">
        <ele>81.37</ele>
        <time>2010-10-10T08:24:30Z</time>
      </trkpt>
      <trkpt lat="49.38508" lon="2.34916">
        <ele>79.93</ele>
        <time>2010-10-10T08:24:35Z</time>
      </trkpt>
      <trkpt lat="49.38483" lon="2.3493">
        <ele>77.52</ele>
        <time>2010-10-10T08:24:46Z</time>
      </trkpt>
      <trkpt lat="49.38465" lon="2.34916">
        <ele>78</ele>
        <time>2010-10-10T08:24:57Z</time>
      </trkpt>
      <trkpt lat="49.38455" lon="2.34899">
        <ele>78.97</ele>
        <time>2010-10-10T08:25:05Z</time>
      </trkpt>
      <trkpt lat="49.38442" lon="2.3487">
        <ele>82.33</ele>
        <time>2010-10-10T08:25:19Z</time>
      </trkpt>
      <trkpt lat="49.38441" lon="2.34868">
        <ele>82.81</ele>
        <time>2010-10-10T08:25:20Z</time>
      </trkpt>
      <trkpt lat="49.3844" lon="2.34863">
        <ele>82.81</ele>
        <time>2010-10-10T08:25:22Z</time>
      </trkpt>
      <trkpt lat="49.38427" lon="2.34839">
        <ele>85.21</ele>
        <time>2010-10-10T08:25:32Z</time>
      </trkpt>
      <trkpt lat="49.38415" lon="2.34801">
        <ele>84.25</ele>
        <time>2010-10-10T08:25:43Z</time>
      </trkpt>
      <trkpt lat="49.38404" lon="2.34772">
        <ele>81.85</ele>
        <time>2010-10-10T08:25:51Z</time>
      </trkpt>
      <trkpt lat="49.38403" lon="2.34764">
        <ele>81.37</ele>
        <time>2010-10-10T08:25:53Z</time>
      </trkpt>
      <trkpt lat="49.38384" lon="2.34734">
        <ele>81.85</ele>
        <time>2010-10-10T08:26:04Z</time>
      </trkpt>
      <trkpt lat="49.38361" lon="2.34714">
        <ele>84.25</ele>
        <time>2010-10-10T08:26:15Z</time>
      </trkpt>
      <trkpt lat="49.38352" lon="2.34704">
        <ele>83.77</ele>
        <time>2010-10-10T08:26:20Z</time>
      </trkpt>
      <trkpt lat="49.38345" lon="2.34689">
        <ele>83.77</ele>
        <time>2010-10-10T08:26:25Z</time>
      </trkpt>
      <trkpt lat="49.38336" lon="2.34676">
        <ele>82.33</ele>
        <time>2010-10-10T08:26:29Z</time>
      </trkpt>
      <trkpt lat="49.38316" lon="2.34637">
        <ele>81.37</ele>
        <time>2010-10-10T08:26:40Z</time>
      </trkpt>
      <trkpt lat="49.38313" lon="2.34625">
        <ele>81.85</ele>
        <time>2010-10-10T08:26:45Z</time>
      </trkpt>
      <trkpt lat="49.38298" lon="2.34624">
        <ele>80.41</ele>
        <time>2010-10-10T08:26:51Z</time>
      </trkpt>
      <trkpt lat="49.38292" lon="2.3463">
        <ele>80.41</ele>
        <time>2010-10-10T08:26:53Z</time>
      </trkpt>
      <trkpt lat="49.3828" lon="2.34658">
        <ele>80.41</ele>
        <time>2010-10-10T08:27:02Z</time>
      </trkpt>
      <trkpt lat="49.38273" lon="2.3468">
        <ele>79.93</ele>
        <time>2010-10-10T08:27:09Z</time>
      </trkpt>
      <trkpt lat="49.38265" lon="2.34695">
        <ele>80.41</ele>
        <time>2010-10-10T08:27:15Z</time>
      </trkpt>
      <trkpt lat="49.38266" lon="2.34745">
        <ele>79.93</ele>
        <time>2010-10-10T08:27:26Z</time>
      </trkpt>
      <trkpt lat="49.38267" lon="2.34748">
        <ele>79.93</ele>
        <time>2010-10-10T08:27:27Z</time>
      </trkpt>
      <trkpt lat="49.38264" lon="2.34755">
        <ele>80.41</ele>
        <time>2010-10-10T08:27:29Z</time>
      </trkpt>
      <trkpt lat="49.3825" lon="2.34803">
        <ele>79.93</ele>
        <time>2010-10-10T08:27:40Z</time>
      </trkpt>
      <trkpt lat="49.38243" lon="2.34813">
        <ele>80.89</ele>
        <time>2010-10-10T08:27:45Z</time>
      </trkpt>
      <trkpt lat="49.3825" lon="2.34856">
        <ele>81.85</ele>
        <time>2010-10-10T08:27:52Z</time>
      </trkpt>
      <trkpt lat="49.38242" lon="2.349">
        <ele>84.73</ele>
        <time>2010-10-10T08:28:03Z</time>
      </trkpt>
      <trkpt lat="49.38239" lon="2.3491">
        <ele>85.21</ele>
        <time>2010-10-10T08:28:06Z</time>
      </trkpt>
      <trkpt lat="49.38227" lon="2.3494">
        <ele>87.14</ele>
        <time>2010-10-10T08:28:17Z</time>
      </trkpt>
      <trkpt lat="49.38224" lon="2.34971">
        <ele>87.62</ele>
        <time>2010-10-10T08:28:25Z</time>
      </trkpt>
      <trkpt lat="49.38196" lon="2.34962">
        <ele>90.5</ele>
        <time>2010-10-10T08:28:34Z</time>
      </trkpt>
      <trkpt lat="49.38173" lon="2.34937">
        <ele>93.39</ele>
        <time>2010-10-10T08:28:46Z</time>
      </trkpt>
      <trkpt lat="49.38156" lon="2.34914">
        <ele>94.83</ele>
        <time>2010-10-10T08:28:57Z</time>
      </trkpt>
      <trkpt lat="49.38134" lon="2.3489">
        <ele>94.83</ele>
        <time>2010-10-10T08:29:07Z</time>
      </trkpt>
      <trkpt lat="49.38123" lon="2.34876">
        <ele>95.31</ele>
        <time>2010-10-10T08:29:12Z</time>
      </trkpt>
      <trkpt lat="49.38103" lon="2.34858">
        <ele>96.27</ele>
        <time>2010-10-10T08:29:19Z</time>
      </trkpt>
      <trkpt lat="49.38088" lon="2.34839">
        <ele>98.19</ele>
        <time>2010-10-10T08:29:28Z</time>
      </trkpt>
      <trkpt lat="49.38059" lon="2.34804">
        <ele>100.6</ele>
        <time>2010-10-10T08:29:41Z</time>
      </trkpt>
      <trkpt lat="49.38036" lon="2.34768">
        <ele>103.48</ele>
        <time>2010-10-10T08:29:54Z</time>
      </trkpt>
      <trkpt lat="49.38026" lon="2.34753">
        <ele>105.4</ele>
        <time>2010-10-10T08:30:01Z</time>
      </trkpt>
      <trkpt lat="49.38021" lon="2.34741">
        <ele>106.84</ele>
        <time>2010-10-10T08:30:05Z</time>
      </trkpt>
      <trkpt lat="49.38008" lon="2.34718">
        <ele>109.25</ele>
        <time>2010-10-10T08:30:12Z</time>
      </trkpt>
      <trkpt lat="49.38003" lon="2.34707">
        <ele>111.65</ele>
        <time>2010-10-10T08:30:17Z</time>
      </trkpt>
      <trkpt lat="49.37999" lon="2.34739">
        <ele>115.01</ele>
        <time>2010-10-10T08:30:29Z</time>
      </trkpt>
      <trkpt lat="49.37999" lon="2.34741">
        <ele>115.98</ele>
        <time>2010-10-10T08:30:30Z</time>
      </trkpt>
      <trkpt lat="49.37983" lon="2.34731">
        <ele>118.86</ele>
        <time>2010-10-10T08:30:38Z</time>
      </trkpt>
      <trkpt lat="49.37982" lon="2.34728">
        <ele>118.86</ele>
        <time>2010-10-10T08:30:39Z</time>
      </trkpt>
      <trkpt lat="49.37975" lon="2.34711">
        <ele>121.74</ele>
        <time>2010-10-10T08:30:48Z</time>
      </trkpt>
      <trkpt lat="49.37975" lon="2.34708">
        <ele>122.22</ele>
        <time>2010-10-10T08:30:49Z</time>
      </trkpt>
      <trkpt lat="49.37972" lon="2.347">
        <ele>123.19</ele>
        <time>2010-10-10T08:30:52Z</time>
      </trkpt>
      <trkpt lat="49.37956" lon="2.34677">
        <ele>126.55</ele>
        <time>2010-10-10T08:31:03Z</time>
      </trkpt>
      <trkpt lat="49.37949" lon="2.34664">
        <ele>127.99</ele>
        <time>2010-10-10T08:31:08Z</time>
      </trkpt>
      <trkpt lat="49.37937" lon="2.34645">
        <ele>130.88</ele>
        <time>2010-10-10T08:31:18Z</time>
      </trkpt>
      <trkpt lat="49.37928" lon="2.34645">
        <ele>132.32</ele>
        <time>2010-10-10T08:31:30Z</time>
      </trkpt>
      <trkpt lat="49.37927" lon="2.34656">
        <ele>131.36</ele>
        <time>2010-10-10T08:31:45Z</time>
      </trkpt>
      <trkpt lat="49.37929" lon="2.34688">
        <ele>130.88</ele>
        <time>2010-10-10T08:31:58Z</time>
      </trkpt>
      <trkpt lat="49.37934" lon="2.34708">
        <ele>130.4</ele>
        <time>2010-10-10T08:32:08Z</time>
      </trkpt>
      <trkpt lat="49.37937" lon="2.34726">
        <ele>129.92</ele>
        <time>2010-10-10T08:32:18Z</time>
      </trkpt>
      <trkpt lat="49.37932" lon="2.34753">
        <ele>130.4</ele>
        <time>2010-10-10T08:32:34Z</time>
      </trkpt>
      <trkpt lat="49.37933" lon="2.34778">
        <ele>130.4</ele>
        <time>2010-10-10T08:32:42Z</time>
      </trkpt>
      <trkpt lat="49.37937" lon="2.34807">
        <ele>131.36</ele>
        <time>2010-10-10T08:32:53Z</time>
      </trkpt>
      <trkpt lat="49.37933" lon="2.34828">
        <ele>132.32</ele>
        <time>2010-10-10T08:33:03Z</time>
      </trkpt>
      <trkpt lat="49.37921" lon="2.34846">
        <ele>134.24</ele>
        <time>2010-10-10T08:33:13Z</time>
      </trkpt>
      <trkpt lat="49.37915" lon="2.34866">
        <ele>135.68</ele>
        <time>2010-10-10T08:33:25Z</time>
      </trkpt>
      <trkpt lat="49.37901" lon="2.34887">
        <ele>136.16</ele>
        <time>2010-10-10T08:33:38Z</time>
      </trkpt>
      <trkpt lat="49.37891" lon="2.34904">
        <ele>136.64</ele>
        <time>2010-10-10T08:33:50Z</time>
      </trkpt>
      <trkpt lat="49.37886" lon="2.34932">
        <ele>137.13</ele>
        <time>2010-10-10T08:34:02Z</time>
      </trkpt>
      <trkpt lat="49.37881" lon="2.34939">
        <ele>138.09</ele>
        <time>2010-10-10T08:34:08Z</time>
      </trkpt>
      <trkpt lat="49.37881" lon="2.34971">
        <ele>138.57</ele>
        <time>2010-10-10T08:34:19Z</time>
      </trkpt>
      <trkpt lat="49.37872" lon="2.34989">
        <ele>139.05</ele>
        <time>2010-10-10T08:34:30Z</time>
      </trkpt>
      <trkpt lat="49.37864" lon="2.35007">
        <ele>138.57</ele>
        <time>2010-10-10T08:34:39Z</time>
      </trkpt>
      <trkpt lat="49.37854" lon="2.35022">
        <ele>138.57</ele>
        <time>2010-10-10T08:34:51Z</time>
      </trkpt>
      <trkpt lat="49.37851" lon="2.35038">
        <ele>137.61</ele>
        <time>2010-10-10T08:35:03Z</time>
      </trkpt>
      <trkpt lat="49.37849" lon="2.35043">
        <ele>137.61</ele>
        <time>2010-10-10T08:35:07Z</time>
      </trkpt>
      <trkpt lat="49.37843" lon="2.35052">
        <ele>137.61</ele>
        <time>2010-10-10T08:35:10Z</time>
      </trkpt>
      <trkpt lat="49.3782" lon="2.35091">
        <ele>138.57</ele>
        <time>2010-10-10T08:35:22Z</time>
      </trkpt>
      <trkpt lat="49.37819" lon="2.351">
        <ele>138.57</ele>
        <time>2010-10-10T08:35:24Z</time>
      </trkpt>
      <trkpt lat="49.37799" lon="2.35144">
        <ele>139.05</ele>
        <time>2010-10-10T08:35:37Z</time>
      </trkpt>
      <trkpt lat="49.37794" lon="2.35174">
        <ele>138.57</ele>
        <time>2010-10-10T08:35:47Z</time>
      </trkpt>
      <trkpt lat="49.37793" lon="2.35181">
        <ele>137.61</ele>
        <time>2010-10-10T08:35:49Z</time>
      </trkpt>
      <trkpt lat="49.37793" lon="2.35182">
        <ele>137.61</ele>
        <time>2010-10-10T08:35:50Z</time>
      </trkpt>
      <trkpt lat="49.37786" lon="2.35209">
        <ele>137.13</ele>
        <time>2010-10-10T08:35:59Z</time>
      </trkpt>
      <trkpt lat="49.37785" lon="2.35226">
        <ele>137.13</ele>
        <time>2010-10-10T08:36:02Z</time>
      </trkpt>
      <trkpt lat="49.3776" lon="2.35272">
        <ele>137.13</ele>
        <time>2010-10-10T08:36:14Z</time>
      </trkpt>
      <trkpt lat="49.37752" lon="2.35279">
        <ele>137.13</ele>
        <time>2010-10-10T08:36:17Z</time>
      </trkpt>
      <trkpt lat="49.37737" lon="2.35309">
        <ele>137.13</ele>
        <time>2010-10-10T08:36:28Z</time>
      </trkpt>
      <trkpt lat="49.37735" lon="2.35312">
        <ele>137.13</ele>
        <time>2010-10-10T08:36:29Z</time>
      </trkpt>
      <trkpt lat="49.37726" lon="2.35344">
        <ele>137.61</ele>
        <time>2010-10-10T08:36:39Z</time>
      </trkpt>
      <trkpt lat="49.3771" lon="2.35362">
        <ele>137.61</ele>
        <time>2010-10-10T08:36:45Z</time>
      </trkpt>
      <trkpt lat="49.37703" lon="2.35375">
        <ele>138.09</ele>
        <time>2010-10-10T08:36:49Z</time>
      </trkpt>
      <trkpt lat="49.37689" lon="2.35408">
        <ele>138.57</ele>
        <time>2010-10-10T08:36:58Z</time>
      </trkpt>
      <trkpt lat="49.37685" lon="2.35433">
        <ele>138.09</ele>
        <time>2010-10-10T08:37:11Z</time>
      </trkpt>
      <trkpt lat="49.37685" lon="2.35435">
        <ele>138.09</ele>
        <time>2010-10-10T08:37:12Z</time>
      </trkpt>
      <trkpt lat="49.37693" lon="2.35447">
        <ele>138.09</ele>
        <time>2010-10-10T08:37:16Z</time>
      </trkpt>
      <trkpt lat="49.37703" lon="2.35479">
        <ele>138.09</ele>
        <time>2010-10-10T08:37:26Z</time>
      </trkpt>
      <trkpt lat="49.3772" lon="2.35526">
        <ele>138.57</ele>
        <time>2010-10-10T08:37:36Z</time>
      </trkpt>
      <trkpt lat="49.37723" lon="2.35532">
        <ele>138.09</ele>
        <time>2010-10-10T08:37:38Z</time>
      </trkpt>
      <trkpt lat="49.37735" lon="2.35544">
        <ele>137.61</ele>
        <time>2010-10-10T08:37:44Z</time>
      </trkpt>
      <trkpt lat="49.37744" lon="2.3556">
        <ele>137.13</ele>
        <time>2010-10-10T08:37:49Z</time>
      </trkpt>
      <trkpt lat="49.37759" lon="2.35586">
        <ele>136.64</ele>
        <time>2010-10-10T08:37:57Z</time>
      </trkpt>
      <trkpt lat="49.37761" lon="2.35587">
        <ele>136.64</ele>
        <time>2010-10-10T08:37:58Z</time>
      </trkpt>
      <trkpt lat="49.37762" lon="2.3559">
        <ele>136.16</ele>
        <time>2010-10-10T08:37:59Z</time>
      </trkpt>
      <trkpt lat="49.3777" lon="2.35605">
        <ele>137.13</ele>
        <time>2010-10-10T08:38:03Z</time>
      </trkpt>
      <trkpt lat="49.37783" lon="2.3563">
        <ele>137.13</ele>
        <time>2010-10-10T08:38:17Z</time>
      </trkpt>
      <trkpt lat="49.37787" lon="2.35634">
        <ele>136.64</ele>
        <time>2010-10-10T08:38:37Z</time>
      </trkpt>
      <trkpt lat="49.3779" lon="2.35637">
        <ele>136.64</ele>
        <time>2010-10-10T08:38:59Z</time>
      </trkpt>
      <trkpt lat="49.37795" lon="2.35678">
        <ele>137.13</ele>
        <time>2010-10-10T08:39:09Z</time>
      </trkpt>
      <trkpt lat="49.37795" lon="2.35689">
        <ele>137.13</ele>
        <time>2010-10-10T08:39:12Z</time>
      </trkpt>
      <trkpt lat="49.37797" lon="2.3571">
        <ele>138.09</ele>
        <time>2010-10-10T08:39:18Z</time>
      </trkpt>
      <trkpt lat="49.37796" lon="2.35747">
        <ele>138.09</ele>
        <time>2010-10-10T08:39:28Z</time>
      </trkpt>
      <trkpt lat="49.37799" lon="2.35763">
        <ele>138.09</ele>
        <time>2010-10-10T08:39:32Z</time>
      </trkpt>
      <trkpt lat="49.37799" lon="2.35788">
        <ele>138.09</ele>
        <time>2010-10-10T08:39:39Z</time>
      </trkpt>
      <trkpt lat="49.37801" lon="2.35818">
        <ele>138.09</ele>
        <time>2010-10-10T08:39:46Z</time>
      </trkpt>
      <trkpt lat="49.37802" lon="2.35841">
        <ele>138.09</ele>
        <time>2010-10-10T08:39:52Z</time>
      </trkpt>
      <trkpt lat="49.37805" lon="2.35866">
        <ele>137.61</ele>
        <time>2010-10-10T08:39:57Z</time>
      </trkpt>
      <trkpt lat="49.37803" lon="2.35905">
        <ele>136.64</ele>
        <time>2010-10-10T08:40:06Z</time>
      </trkpt>
      <trkpt lat="49.37802" lon="2.35919">
        <ele>136.64</ele>
        <time>2010-10-10T08:40:09Z</time>
      </trkpt>
      <trkpt lat="49.37801" lon="2.35955">
        <ele>135.2</ele>
        <time>2010-10-10T08:40:17Z</time>
      </trkpt>
      <trkpt lat="49.37803" lon="2.36012">
        <ele>133.76</ele>
        <time>2010-10-10T08:40:28Z</time>
      </trkpt>
      <trkpt lat="49.37805" lon="2.36034">
        <ele>133.76</ele>
        <time>2010-10-10T08:40:32Z</time>
      </trkpt>
      <trkpt lat="49.378" lon="2.3605">
        <ele>132.8</ele>
        <time>2010-10-10T08:40:36Z</time>
      </trkpt>
      <trkpt lat="49.37794" lon="2.36072">
        <ele>131.84</ele>
        <time>2010-10-10T08:40:40Z</time>
      </trkpt>
      <trkpt lat="49.37791" lon="2.36091">
        <ele>130.4</ele>
        <time>2010-10-10T08:40:44Z</time>
      </trkpt>
      <trkpt lat="49.3779" lon="2.36094">
        <ele>130.4</ele>
        <time>2010-10-10T08:40:45Z</time>
      </trkpt>
      <trkpt lat="49.37785" lon="2.36135">
        <ele>129.92</ele>
        <time>2010-10-10T08:40:55Z</time>
      </trkpt>
      <trkpt lat="49.37784" lon="2.36139">
        <ele>129.43</ele>
        <time>2010-10-10T08:40:56Z</time>
      </trkpt>
      <trkpt lat="49.37783" lon="2.36147">
        <ele>129.92</ele>
        <time>2010-10-10T08:40:58Z</time>
      </trkpt>
      <trkpt lat="49.37782" lon="2.36151">
        <ele>129.92</ele>
        <time>2010-10-10T08:40:59Z</time>
      </trkpt>
      <trkpt lat="49.37781" lon="2.36155">
        <ele>129.92</ele>
        <time>2010-10-10T08:41:00Z</time>
      </trkpt>
      <trkpt lat="49.3778" lon="2.36159">
        <ele>130.4</ele>
        <time>2010-10-10T08:41:01Z</time>
      </trkpt>
      <trkpt lat="49.3778" lon="2.36163">
        <ele>130.88</ele>
        <time>2010-10-10T08:41:02Z</time>
      </trkpt>
      <trkpt lat="49.3778" lon="2.36167">
        <ele>130.88</ele>
        <time>2010-10-10T08:41:03Z</time>
      </trkpt>
      <trkpt lat="49.37781" lon="2.36171">
        <ele>130.88</ele>
        <time>2010-10-10T08:41:04Z</time>
      </trkpt>
      <trkpt lat="49.37782" lon="2.36174">
        <ele>130.88</ele>
        <time>2010-10-10T08:41:05Z</time>
      </trkpt>
      <trkpt lat="49.37782" lon="2.36178">
        <ele>130.88</ele>
        <time>2010-10-10T08:41:06Z</time>
      </trkpt>
      <trkpt lat="49.37781" lon="2.36181">
        <ele>130.88</ele>
        <time>2010-10-10T08:41:07Z</time>
      </trkpt>
      <trkpt lat="49.37781" lon="2.36184">
        <ele>131.36</ele>
        <time>2010-10-10T08:41:08Z</time>
      </trkpt>
      <trkpt lat="49.37783" lon="2.36186">
        <ele>130.88</ele>
        <time>2010-10-10T08:41:09Z</time>
      </trkpt>
      <trkpt lat="49.37786" lon="2.36188">
        <ele>130.4</ele>
        <time>2010-10-10T08:41:10Z</time>
      </trkpt>
      <trkpt lat="49.37787" lon="2.36192">
        <ele>129.92</ele>
        <time>2010-10-10T08:41:11Z</time>
      </trkpt>
      <trkpt lat="49.37789" lon="2.36195">
        <ele>129.92</ele>
        <time>2010-10-10T08:41:12Z</time>
      </trkpt>
      <trkpt lat="49.37794" lon="2.36197">
        <ele>126.07</ele>
        <time>2010-10-10T08:41:23Z</time>
      </trkpt>
      <trkpt lat="49.37794" lon="2.36196">
        <ele>126.07</ele>
        <time>2010-10-10T08:41:24Z</time>
      </trkpt>
      <trkpt lat="49.37795" lon="2.36193">
        <ele>122.71</ele>
        <time>2010-10-10T08:41:29Z</time>
      </trkpt>
      <trkpt lat="49.37795" lon="2.36191">
        <ele>122.22</ele>
        <time>2010-10-10T08:41:30Z</time>
      </trkpt>
      <trkpt lat="49.37797" lon="2.36183">
        <ele>119.82</ele>
        <time>2010-10-10T08:41:34Z</time>
      </trkpt>
      <trkpt lat="49.37804" lon="2.36173">
        <ele>116.46</ele>
        <time>2010-10-10T08:41:39Z</time>
      </trkpt>
      <trkpt lat="49.37807" lon="2.3617">
        <ele>115.5</ele>
        <time>2010-10-10T08:41:41Z</time>
      </trkpt>
      <trkpt lat="49.37817" lon="2.36187">
        <ele>112.13</ele>
        <time>2010-10-10T08:41:48Z</time>
      </trkpt>
      <trkpt lat="49.37819" lon="2.36187">
        <ele>112.13</ele>
        <time>2010-10-10T08:41:49Z</time>
      </trkpt>
      <trkpt lat="49.37824" lon="2.36185">
        <ele>110.21</ele>
        <time>2010-10-10T08:41:52Z</time>
      </trkpt>
      <trkpt lat="49.37834" lon="2.36179">
        <ele>110.21</ele>
        <time>2010-10-10T08:41:54Z</time>
      </trkpt>
      <trkpt lat="49.3784" lon="2.36174">
        <ele>109.25</ele>
        <time>2010-10-10T08:41:55Z</time>
      </trkpt>
      <trkpt lat="49.37846" lon="2.36169">
        <ele>108.29</ele>
        <time>2010-10-10T08:41:56Z</time>
      </trkpt>
      <trkpt lat="49.37852" lon="2.36167">
        <ele>108.29</ele>
        <time>2010-10-10T08:41:57Z</time>
      </trkpt>
      <trkpt lat="49.37859" lon="2.36165">
        <ele>107.32</ele>
        <time>2010-10-10T08:41:58Z</time>
      </trkpt>
      <trkpt lat="49.37916" lon="2.36158">
        <ele>104.44</ele>
        <time>2010-10-10T08:42:04Z</time>
      </trkpt>
      <trkpt lat="49.37942" lon="2.36155">
        <ele>102.04</ele>
        <time>2010-10-10T08:42:09Z</time>
      </trkpt>
      <trkpt lat="49.37973" lon="2.36156">
        <ele>99.63</ele>
        <time>2010-10-10T08:42:15Z</time>
      </trkpt>
      <trkpt lat="49.38013" lon="2.36163">
        <ele>96.27</ele>
        <time>2010-10-10T08:42:23Z</time>
      </trkpt>
      <trkpt lat="49.38021" lon="2.36167">
        <ele>94.83</ele>
        <time>2010-10-10T08:42:27Z</time>
      </trkpt>
      <trkpt lat="49.38025" lon="2.3617">
        <ele>94.35</ele>
        <time>2010-10-10T08:42:28Z</time>
      </trkpt>
      <trkpt lat="49.38041" lon="2.36181">
        <ele>92.9</ele>
        <time>2010-10-10T08:42:32Z</time>
      </trkpt>
      <trkpt lat="49.38045" lon="2.36182">
        <ele>92.9</ele>
        <time>2010-10-10T08:42:33Z</time>
      </trkpt>
      <trkpt lat="49.38064" lon="2.36198">
        <ele>91.46</ele>
        <time>2010-10-10T08:42:38Z</time>
      </trkpt>
      <trkpt lat="49.38079" lon="2.36237">
        <ele>90.02</ele>
        <time>2010-10-10T08:42:47Z</time>
      </trkpt>
      <trkpt lat="49.3808" lon="2.36242">
        <ele>90.02</ele>
        <time>2010-10-10T08:42:48Z</time>
      </trkpt>
      <trkpt lat="49.38079" lon="2.36251">
        <ele>89.54</ele>
        <time>2010-10-10T08:42:51Z</time>
      </trkpt>
      <trkpt lat="49.38075" lon="2.36278">
        <ele>88.1</ele>
        <time>2010-10-10T08:43:00Z</time>
      </trkpt>
      <trkpt lat="49.38076" lon="2.36299">
        <ele>88.1</ele>
        <time>2010-10-10T08:43:05Z</time>
      </trkpt>
      <trkpt lat="49.38074" lon="2.36337">
        <ele>88.1</ele>
        <time>2010-10-10T08:43:17Z</time>
      </trkpt>
      <trkpt lat="49.38069" lon="2.36359">
        <ele>88.1</ele>
        <time>2010-10-10T08:43:24Z</time>
      </trkpt>
      <trkpt lat="49.38058" lon="2.36397">
        <ele>88.58</ele>
        <time>2010-10-10T08:43:35Z</time>
      </trkpt>
      <trkpt lat="49.38065" lon="2.36437">
        <ele>89.06</ele>
        <time>2010-10-10T08:43:47Z</time>
      </trkpt>
      <trkpt lat="49.38065" lon="2.3644">
        <ele>89.54</ele>
        <time>2010-10-10T08:43:48Z</time>
      </trkpt>
      <trkpt lat="49.38066" lon="2.36468">
        <ele>90.5</ele>
        <time>2010-10-10T08:43:54Z</time>
      </trkpt>
      <trkpt lat="49.38065" lon="2.36469">
        <ele>90.5</ele>
        <time>2010-10-10T08:43:55Z</time>
      </trkpt>
      <trkpt lat="49.3806" lon="2.36493">
        <ele>90.5</ele>
        <time>2010-10-10T08:44:00Z</time>
      </trkpt>
      <trkpt lat="49.38053" lon="2.36518">
        <ele>90.5</ele>
        <time>2010-10-10T08:44:06Z</time>
      </trkpt>
      <trkpt lat="49.38042" lon="2.36566">
        <ele>92.42</ele>
        <time>2010-10-10T08:44:18Z</time>
      </trkpt>
      <trkpt lat="49.38039" lon="2.36604">
        <ele>91.94</ele>
        <time>2010-10-10T08:44:26Z</time>
      </trkpt>
      <trkpt lat="49.38043" lon="2.36622">
        <ele>90.5</ele>
        <time>2010-10-10T08:44:30Z</time>
      </trkpt>
      <trkpt lat="49.38045" lon="2.36627">
        <ele>90.5</ele>
        <time>2010-10-10T08:44:32Z</time>
      </trkpt>
      <trkpt lat="49.38046" lon="2.3663">
        <ele>90.02</ele>
        <time>2010-10-10T08:44:33Z</time>
      </trkpt>
      <trkpt lat="49.38039" lon="2.36706">
        <ele>91.46</ele>
        <time>2010-10-10T08:45:14Z</time>
      </trkpt>
      <trkpt lat="49.38023" lon="2.36713">
        <ele>92.42</ele>
        <time>2010-10-10T08:45:20Z</time>
      </trkpt>
      <trkpt lat="49.38013" lon="2.36726">
        <ele>93.87</ele>
        <time>2010-10-10T08:45:25Z</time>
      </trkpt>
      <trkpt lat="49.38007" lon="2.36737">
        <ele>94.83</ele>
        <time>2010-10-10T08:45:30Z</time>
      </trkpt>
      <trkpt lat="49.3799" lon="2.36762">
        <ele>98.19</ele>
        <time>2010-10-10T08:45:40Z</time>
      </trkpt>
      <trkpt lat="49.37988" lon="2.36766">
        <ele>98.19</ele>
        <time>2010-10-10T08:45:42Z</time>
      </trkpt>
      <trkpt lat="49.37985" lon="2.3678">
        <ele>99.15</ele>
        <time>2010-10-10T08:45:46Z</time>
      </trkpt>
      <trkpt lat="49.37973" lon="2.36804">
        <ele>102.04</ele>
        <time>2010-10-10T08:45:55Z</time>
      </trkpt>
      <trkpt lat="49.37972" lon="2.36809">
        <ele>102.52</ele>
        <time>2010-10-10T08:45:57Z</time>
      </trkpt>
      <trkpt lat="49.37971" lon="2.36813">
        <ele>103.48</ele>
        <time>2010-10-10T08:45:58Z</time>
      </trkpt>
      <trkpt lat="49.37967" lon="2.36823">
        <ele>104.92</ele>
        <time>2010-10-10T08:46:03Z</time>
      </trkpt>
      <trkpt lat="49.37962" lon="2.36829">
        <ele>106.84</ele>
        <time>2010-10-10T08:46:08Z</time>
      </trkpt>
      <trkpt lat="49.3796" lon="2.36831">
        <ele>107.32</ele>
        <time>2010-10-10T08:46:10Z</time>
      </trkpt>
      <trkpt lat="49.37944" lon="2.36837">
        <ele>111.17</ele>
        <time>2010-10-10T08:46:20Z</time>
      </trkpt>
      <trkpt lat="49.37942" lon="2.36839">
        <ele>113.09</ele>
        <time>2010-10-10T08:46:23Z</time>
      </trkpt>
      <trkpt lat="49.37934" lon="2.3684">
        <ele>114.53</ele>
        <time>2010-10-10T08:46:28Z</time>
      </trkpt>
      <trkpt lat="49.37913" lon="2.36842">
        <ele>117.42</ele>
        <time>2010-10-10T08:46:40Z</time>
      </trkpt>
      <trkpt lat="49.37905" lon="2.36844">
        <ele>118.38</ele>
        <time>2010-10-10T08:46:44Z</time>
      </trkpt>
      <trkpt lat="49.37883" lon="2.36842">
        <ele>121.26</ele>
        <time>2010-10-10T08:46:54Z</time>
      </trkpt>
      <trkpt lat="49.37868" lon="2.36845">
        <ele>123.19</ele>
        <time>2010-10-10T08:47:03Z</time>
      </trkpt>
      <trkpt lat="49.37861" lon="2.36865">
        <ele>125.59</ele>
        <time>2010-10-10T08:47:11Z</time>
      </trkpt>
      <trkpt lat="49.37854" lon="2.36886">
        <ele>128.47</ele>
        <time>2010-10-10T08:47:19Z</time>
      </trkpt>
      <trkpt lat="49.37849" lon="2.36893">
        <ele>128.47</ele>
        <time>2010-10-10T08:47:22Z</time>
      </trkpt>
      <trkpt lat="49.37846" lon="2.36903">
        <ele>129.43</ele>
        <time>2010-10-10T08:47:26Z</time>
      </trkpt>
      <trkpt lat="49.37845" lon="2.36914">
        <ele>130.88</ele>
        <time>2010-10-10T08:47:32Z</time>
      </trkpt>
      <trkpt lat="49.37823" lon="2.36926">
        <ele>132.32</ele>
        <time>2010-10-10T08:47:40Z</time>
      </trkpt>
      <trkpt lat="49.37804" lon="2.36947">
        <ele>133.76</ele>
        <time>2010-10-10T08:47:47Z</time>
      </trkpt>
      <trkpt lat="49.37776" lon="2.36974">
        <ele>135.2</ele>
        <time>2010-10-10T08:47:58Z</time>
      </trkpt>
      <trkpt lat="49.37747" lon="2.37003">
        <ele>138.09</ele>
        <time>2010-10-10T08:48:10Z</time>
      </trkpt>
      <trkpt lat="49.37727" lon="2.37032">
        <ele>139.05</ele>
        <time>2010-10-10T08:48:21Z</time>
      </trkpt>
      <trkpt lat="49.37709" lon="2.37069">
        <ele>140.49</ele>
        <time>2010-10-10T08:48:32Z</time>
      </trkpt>
      <trkpt lat="49.37706" lon="2.37071">
        <ele>140.49</ele>
        <time>2010-10-10T08:48:33Z</time>
      </trkpt>
      <trkpt lat="49.37695" lon="2.37093">
        <ele>141.45</ele>
        <time>2010-10-10T08:48:46Z</time>
      </trkpt>
      <trkpt lat="49.37699" lon="2.37099">
        <ele>141.45</ele>
        <time>2010-10-10T08:55:30Z</time>
      </trkpt>
      <trkpt lat="49.37709" lon="2.37124">
        <ele>140.97</ele>
        <time>2010-10-10T08:55:42Z</time>
      </trkpt>
      <trkpt lat="49.37722" lon="2.37153">
        <ele>140.97</ele>
        <time>2010-10-10T08:55:50Z</time>
      </trkpt>
      <trkpt lat="49.37726" lon="2.37164">
        <ele>140.97</ele>
        <time>2010-10-10T08:55:53Z</time>
      </trkpt>
      <trkpt lat="49.37738" lon="2.37182">
        <ele>141.45</ele>
        <time>2010-10-10T08:56:00Z</time>
      </trkpt>
      <trkpt lat="49.37744" lon="2.37195">
        <ele>141.93</ele>
        <time>2010-10-10T08:56:04Z</time>
      </trkpt>
      <trkpt lat="49.37763" lon="2.37223">
        <ele>141.93</ele>
        <time>2010-10-10T08:56:13Z</time>
      </trkpt>
      <trkpt lat="49.37777" lon="2.3724">
        <ele>141.45</ele>
        <time>2010-10-10T08:56:25Z</time>
      </trkpt>
      <trkpt lat="49.37776" lon="2.37237">
        <ele>140.49</ele>
        <time>2010-10-10T08:56:29Z</time>
      </trkpt>
      <trkpt lat="49.37786" lon="2.37226">
        <ele>139.53</ele>
        <time>2010-10-10T08:56:34Z</time>
      </trkpt>
      <trkpt lat="49.37797" lon="2.37216">
        <ele>139.05</ele>
        <time>2010-10-10T08:56:40Z</time>
      </trkpt>
      <trkpt lat="49.37826" lon="2.37194">
        <ele>137.61</ele>
        <time>2010-10-10T08:56:48Z</time>
      </trkpt>
      <trkpt lat="49.37825" lon="2.37191">
        <ele>137.61</ele>
        <time>2010-10-10T08:56:52Z</time>
      </trkpt>
      <trkpt lat="49.37846" lon="2.37173">
        <ele>135.68</ele>
        <time>2010-10-10T08:57:02Z</time>
      </trkpt>
      <trkpt lat="49.37849" lon="2.37171">
        <ele>134.72</ele>
        <time>2010-10-10T08:57:03Z</time>
      </trkpt>
      <trkpt lat="49.37885" lon="2.37146">
        <ele>133.28</ele>
        <time>2010-10-10T08:57:15Z</time>
      </trkpt>
      <trkpt lat="49.37897" lon="2.37137">
        <ele>131.36</ele>
        <time>2010-10-10T08:57:24Z</time>
      </trkpt>
      <trkpt lat="49.37938" lon="2.37113">
        <ele>130.4</ele>
        <time>2010-10-10T08:57:34Z</time>
      </trkpt>
      <trkpt lat="49.38" lon="2.37105">
        <ele>129.43</ele>
        <time>2010-10-10T08:57:43Z</time>
      </trkpt>
      <trkpt lat="49.38038" lon="2.37129">
        <ele>130.4</ele>
        <time>2010-10-10T08:57:56Z</time>
      </trkpt>
      <trkpt lat="49.38068" lon="2.37159">
        <ele>127.99</ele>
        <time>2010-10-10T08:58:08Z</time>
      </trkpt>
      <trkpt lat="49.38102" lon="2.37194">
        <ele>127.51</ele>
        <time>2010-10-10T08:58:21Z</time>
      </trkpt>
      <trkpt lat="49.38128" lon="2.37224">
        <ele>126.55</ele>
        <time>2010-10-10T08:58:31Z</time>
      </trkpt>
      <trkpt lat="49.38152" lon="2.37247">
        <ele>125.11</ele>
        <time>2010-10-10T08:58:41Z</time>
      </trkpt>
      <trkpt lat="49.38162" lon="2.37255">
        <ele>124.63</ele>
        <time>2010-10-10T08:58:45Z</time>
      </trkpt>
      <trkpt lat="49.38185" lon="2.37273">
        <ele>124.63</ele>
        <time>2010-10-10T08:58:53Z</time>
      </trkpt>
      <trkpt lat="49.38215" lon="2.37314">
        <ele>123.19</ele>
        <time>2010-10-10T08:59:04Z</time>
      </trkpt>
      <trkpt lat="49.38235" lon="2.37344">
        <ele>122.22</ele>
        <time>2010-10-10T08:59:13Z</time>
      </trkpt>
      <trkpt lat="49.38262" lon="2.37369">
        <ele>121.74</ele>
        <time>2010-10-10T08:59:23Z</time>
      </trkpt>
      <trkpt lat="49.38268" lon="2.37378">
        <ele>121.26</ele>
        <time>2010-10-10T08:59:27Z</time>
      </trkpt>
      <trkpt lat="49.38262" lon="2.37395">
        <ele>120.78</ele>
        <time>2010-10-10T08:59:32Z</time>
      </trkpt>
      <trkpt lat="49.38264" lon="2.37423">
        <ele>121.26</ele>
        <time>2010-10-10T08:59:36Z</time>
      </trkpt>
      <trkpt lat="49.38262" lon="2.37435">
        <ele>120.78</ele>
        <time>2010-10-10T08:59:38Z</time>
      </trkpt>
      <trkpt lat="49.38253" lon="2.37481">
        <ele>122.22</ele>
        <time>2010-10-10T08:59:48Z</time>
      </trkpt>
      <trkpt lat="49.38251" lon="2.37493">
        <ele>121.74</ele>
        <time>2010-10-10T08:59:51Z</time>
      </trkpt>
      <trkpt lat="49.3822" lon="2.37551">
        <ele>120.78</ele>
        <time>2010-10-10T09:00:04Z</time>
      </trkpt>
      <trkpt lat="49.38201" lon="2.37579">
        <ele>120.78</ele>
        <time>2010-10-10T09:00:12Z</time>
      </trkpt>
      <trkpt lat="49.38187" lon="2.37595">
        <ele>119.82</ele>
        <time>2010-10-10T09:00:18Z</time>
      </trkpt>
      <trkpt lat="49.38176" lon="2.37607">
        <ele>119.82</ele>
        <time>2010-10-10T09:00:22Z</time>
      </trkpt>
      <trkpt lat="49.38133" lon="2.37633">
        <ele>118.38</ele>
        <time>2010-10-10T09:00:34Z</time>
      </trkpt>
      <trkpt lat="49.38106" lon="2.37664">
        <ele>119.34</ele>
        <time>2010-10-10T09:00:44Z</time>
      </trkpt>
      <trkpt lat="49.38091" lon="2.3769">
        <ele>121.26</ele>
        <time>2010-10-10T09:00:51Z</time>
      </trkpt>
      <trkpt lat="49.38071" lon="2.37713">
        <ele>122.71</ele>
        <time>2010-10-10T09:00:59Z</time>
      </trkpt>
      <trkpt lat="49.38056" lon="2.37732">
        <ele>122.71</ele>
        <time>2010-10-10T09:01:05Z</time>
      </trkpt>
      <trkpt lat="49.3804" lon="2.37779">
        <ele>122.71</ele>
        <time>2010-10-10T09:01:15Z</time>
      </trkpt>
      <trkpt lat="49.38033" lon="2.37825">
        <ele>121.74</ele>
        <time>2010-10-10T09:01:24Z</time>
      </trkpt>
      <trkpt lat="49.3802" lon="2.37861">
        <ele>121.26</ele>
        <time>2010-10-10T09:01:33Z</time>
      </trkpt>
      <trkpt lat="49.37986" lon="2.37876">
        <ele>123.67</ele>
        <time>2010-10-10T09:01:46Z</time>
      </trkpt>
      <trkpt lat="49.37961" lon="2.37882">
        <ele>123.67</ele>
        <time>2010-10-10T09:01:55Z</time>
      </trkpt>
      <trkpt lat="49.37941" lon="2.37882">
        <ele>125.11</ele>
        <time>2010-10-10T09:02:01Z</time>
      </trkpt>
      <trkpt lat="49.37909" lon="2.37891">
        <ele>126.55</ele>
        <time>2010-10-10T09:02:11Z</time>
      </trkpt>
      <trkpt lat="49.37886" lon="2.37899">
        <ele>127.51</ele>
        <time>2010-10-10T09:02:18Z</time>
      </trkpt>
      <trkpt lat="49.37856" lon="2.37911">
        <ele>129.43</ele>
        <time>2010-10-10T09:02:28Z</time>
      </trkpt>
      <trkpt lat="49.37812" lon="2.37906">
        <ele>129.92</ele>
        <time>2010-10-10T09:02:39Z</time>
      </trkpt>
      <trkpt lat="49.37761" lon="2.37892">
        <ele>130.4</ele>
        <time>2010-10-10T09:02:52Z</time>
      </trkpt>
      <trkpt lat="49.37706" lon="2.37879">
        <ele>129.43</ele>
        <time>2010-10-10T09:03:05Z</time>
      </trkpt>
      <trkpt lat="49.37653" lon="2.37899">
        <ele>127.99</ele>
        <time>2010-10-10T09:03:18Z</time>
      </trkpt>
      <trkpt lat="49.37615" lon="2.37929">
        <ele>127.51</ele>
        <time>2010-10-10T09:03:29Z</time>
      </trkpt>
      <trkpt lat="49.37597" lon="2.37983">
        <ele>127.99</ele>
        <time>2010-10-10T09:03:40Z</time>
      </trkpt>
      <trkpt lat="49.3758" lon="2.38029">
        <ele>129.92</ele>
        <time>2010-10-10T09:03:50Z</time>
      </trkpt>
      <trkpt lat="49.37566" lon="2.38072">
        <ele>130.88</ele>
        <time>2010-10-10T09:03:59Z</time>
      </trkpt>
      <trkpt lat="49.37557" lon="2.38093">
        <ele>129.43</ele>
        <time>2010-10-10T09:04:10Z</time>
      </trkpt>
      <trkpt lat="49.3756" lon="2.38098">
        <ele>127.99</ele>
        <time>2010-10-10T09:04:13Z</time>
      </trkpt>
      <trkpt lat="49.37562" lon="2.38108">
        <ele>126.07</ele>
        <time>2010-10-10T09:04:17Z</time>
      </trkpt>
      <trkpt lat="49.37568" lon="2.38123">
        <ele>123.67</ele>
        <time>2010-10-10T09:04:21Z</time>
      </trkpt>
      <trkpt lat="49.37581" lon="2.38143">
        <ele>120.3</ele>
        <time>2010-10-10T09:04:27Z</time>
      </trkpt>
      <trkpt lat="49.37583" lon="2.38143">
        <ele>119.34</ele>
        <time>2010-10-10T09:04:28Z</time>
      </trkpt>
      <trkpt lat="49.37588" lon="2.38149">
        <ele>118.38</ele>
        <time>2010-10-10T09:04:30Z</time>
      </trkpt>
      <trkpt lat="49.37599" lon="2.38159">
        <ele>115.01</ele>
        <time>2010-10-10T09:04:35Z</time>
      </trkpt>
      <trkpt lat="49.37603" lon="2.38164">
        <ele>114.05</ele>
        <time>2010-10-10T09:04:37Z</time>
      </trkpt>
      <trkpt lat="49.37615" lon="2.3818">
        <ele>110.69</ele>
        <time>2010-10-10T09:04:42Z</time>
      </trkpt>
      <trkpt lat="49.37617" lon="2.38182">
        <ele>110.69</ele>
        <time>2010-10-10T09:04:43Z</time>
      </trkpt>
      <trkpt lat="49.37618" lon="2.38185">
        <ele>110.21</ele>
        <time>2010-10-10T09:04:44Z</time>
      </trkpt>
      <trkpt lat="49.37639" lon="2.38209">
        <ele>106.84</ele>
        <time>2010-10-10T09:04:51Z</time>
      </trkpt>
      <trkpt lat="49.37665" lon="2.38224">
        <ele>103</ele>
        <time>2010-10-10T09:04:59Z</time>
      </trkpt>
      <trkpt lat="49.37672" lon="2.38231">
        <ele>100.6</ele>
        <time>2010-10-10T09:05:03Z</time>
      </trkpt>
      <trkpt lat="49.37679" lon="2.38238">
        <ele>98.67</ele>
        <time>2010-10-10T09:05:07Z</time>
      </trkpt>
      <trkpt lat="49.37688" lon="2.38246">
        <ele>95.79</ele>
        <time>2010-10-10T09:05:11Z</time>
      </trkpt>
      <trkpt lat="49.37703" lon="2.38262">
        <ele>92.42</ele>
        <time>2010-10-10T09:05:17Z</time>
      </trkpt>
      <trkpt lat="49.37714" lon="2.38263">
        <ele>90.02</ele>
        <time>2010-10-10T09:05:21Z</time>
      </trkpt>
      <trkpt lat="49.37723" lon="2.38272">
        <ele>88.58</ele>
        <time>2010-10-10T09:05:24Z</time>
      </trkpt>
      <trkpt lat="49.37731" lon="2.38274">
        <ele>87.62</ele>
        <time>2010-10-10T09:05:26Z</time>
      </trkpt>
      <trkpt lat="49.37767" lon="2.38297">
        <ele>83.77</ele>
        <time>2010-10-10T09:05:36Z</time>
      </trkpt>
      <trkpt lat="49.37773" lon="2.38303">
        <ele>82.81</ele>
        <time>2010-10-10T09:05:38Z</time>
      </trkpt>
      <trkpt lat="49.37788" lon="2.38331">
        <ele>79.93</ele>
        <time>2010-10-10T09:05:45Z</time>
      </trkpt>
      <trkpt lat="49.37811" lon="2.38363">
        <ele>77.52</ele>
        <time>2010-10-10T09:05:53Z</time>
      </trkpt>
      <trkpt lat="49.3783" lon="2.38403">
        <ele>74.16</ele>
        <time>2010-10-10T09:06:01Z</time>
      </trkpt>
      <trkpt lat="49.37854" lon="2.3843">
        <ele>71.76</ele>
        <time>2010-10-10T09:06:11Z</time>
      </trkpt>
      <trkpt lat="49.37887" lon="2.38465">
        <ele>69.35</ele>
        <time>2010-10-10T09:06:22Z</time>
      </trkpt>
      <trkpt lat="49.37918" lon="2.38482">
        <ele>67.43</ele>
        <time>2010-10-10T09:06:33Z</time>
      </trkpt>
      <trkpt lat="49.37956" lon="2.3849">
        <ele>66.47</ele>
        <time>2010-10-10T09:06:45Z</time>
      </trkpt>
      <trkpt lat="49.37995" lon="2.38507">
        <ele>66.95</ele>
        <time>2010-10-10T09:06:57Z</time>
      </trkpt>
      <trkpt lat="49.38034" lon="2.38531">
        <ele>64.55</ele>
        <time>2010-10-10T09:07:10Z</time>
      </trkpt>
      <trkpt lat="49.38079" lon="2.38546">
        <ele>63.58</ele>
        <time>2010-10-10T09:07:23Z</time>
      </trkpt>
      <trkpt lat="49.38116" lon="2.38565">
        <ele>64.55</ele>
        <time>2010-10-10T09:07:35Z</time>
      </trkpt>
      <trkpt lat="49.38136" lon="2.38595">
        <ele>61.18</ele>
        <time>2010-10-10T09:07:43Z</time>
      </trkpt>
      <trkpt lat="49.38133" lon="2.38626">
        <ele>58.3</ele>
        <time>2010-10-10T09:07:48Z</time>
      </trkpt>
      <trkpt lat="49.38131" lon="2.38632">
        <ele>57.82</ele>
        <time>2010-10-10T09:07:49Z</time>
      </trkpt>
      <trkpt lat="49.38121" lon="2.38666">
        <ele>54.93</ele>
        <time>2010-10-10T09:07:56Z</time>
      </trkpt>
      <trkpt lat="49.38117" lon="2.38664">
        <ele>77.6953125</ele>
      </trkpt>
      <trkpt lat="49.38095" lon="2.3865">
        <ele>78.7460938</ele>
      </trkpt>
    </trkseg>
  </trk>
</gpx>